<?xml version="1.0" encoding="UTF-8"?>
<gpx version="1.1" creator="2bulu-scraper" xmlns="http://www.topografix.com/GPX/1/1">
  <metadata><name>自贡富顺县</name><desc>source: 2bulu.com trackId=76391438; exported 2026-09-01T15:46:45.847Z</desc>
    <bounds minlat="29.0018949" minlon="104.7729192" maxlat="29.0196032" maxlon="104.7850119"/>
    <link href="https://www.2bulu.com/track/t-7YvclZ9Kwy%252Fp%252FR2KBg5Tzw%253D%253D.htm"><text>2bulu 源页面</text></link>
  </metadata>
  <wpt lat="29.0155597" lon="104.7748185"><ele>275</ele><name>
        </name></wpt>
  <wpt lat="29.0142042" lon="104.7736187"><ele>259</ele><name>
        </name></wpt>
  <wpt lat="29.0112541" lon="104.7752554"><ele>307</ele><name>
        </name></wpt>
  <wpt lat="29.0106784" lon="104.776271"><ele>310</ele><name>
        </name></wpt>
  <wpt lat="29.0081936" lon="104.7820783"><ele>357</ele><name>
        </name></wpt>
  <wpt lat="29.0074451" lon="104.7846601"><ele>358</ele><name>
        </name></wpt>
  <wpt lat="29.0073782" lon="104.7847394"><ele>359</ele><name>
        </name></wpt>
  <wpt lat="29.0072837" lon="104.7849139"><ele>359</ele><name>
        </name></wpt>
  <wpt lat="29.0067903" lon="104.7844998"><ele>362</ele><name>
        </name></wpt>
  <wpt lat="29.0060543" lon="104.7842483"><ele>362</ele><name>
        </name></wpt>
  <wpt lat="29.0058562" lon="104.7842762"><ele>356</ele><name>
        </name></wpt>
  <wpt lat="29.0053159" lon="104.7841544"><ele>346</ele><name>
        </name></wpt>
  <wpt lat="29.0051463" lon="104.7840135"><ele>343</ele><name>
        </name></wpt>
  <wpt lat="29.004716" lon="104.7840828"><ele>346</ele><name>
        </name></wpt>
  <wpt lat="29.0043825" lon="104.7843012"><ele>339</ele><name>
        </name></wpt>
  <wpt lat="29.0042964" lon="104.7831002"><ele>319</ele><name>
        </name></wpt>
  <wpt lat="29.0046817" lon="104.7823954"><ele>315</ele><name>
        </name></wpt>
  <wpt lat="29.0054859" lon="104.7806111"><ele>310</ele><name>
        </name></wpt>
  <wpt lat="29.0039278" lon="104.7806926"><ele>308</ele><name>
        </name></wpt>
  <wpt lat="29.003634" lon="104.7805928"><ele>305</ele><name>
        </name></wpt>
  <wpt lat="29.0033656" lon="104.7802232"><ele>287</ele><name>
        </name></wpt>
  <wpt lat="29.0033846" lon="104.7798806"><ele>296</ele><name>
        </name></wpt>
  <wpt lat="29.0023035" lon="104.778758"><ele>289</ele><name>
        </name></wpt>
  <wpt lat="29.0041385" lon="104.7783587"><ele>311</ele><name>
        </name></wpt>
  <wpt lat="29.0041683" lon="104.7783083"><ele>304</ele><name>
        </name></wpt>
  <wpt lat="29.0053921" lon="104.7776991"><ele>284</ele><name>
        </name></wpt>
  <wpt lat="29.0061376" lon="104.7770999"><ele>273</ele><name>
        </name></wpt>
  <wpt lat="29.0056417" lon="104.7730667"><ele>325</ele><name>
        </name></wpt>
  <wpt lat="29.0063015" lon="104.7741612"><ele>321</ele><name>
        </name></wpt>
  <wpt lat="29.0065928" lon="104.7748266"><ele>303</ele><name>
        </name></wpt>
  <wpt lat="29.0072485" lon="104.7745955"><ele>298</ele><name>
        </name></wpt>
  <wpt lat="29.009467" lon="104.7748514"><ele>283</ele><name>
        </name></wpt>
  <wpt lat="29.0096233" lon="104.7752367"><ele>265</ele><name>
        </name></wpt>
  <wpt lat="29.0102432" lon="104.7752298"><ele>272</ele><name>
        </name></wpt>
  <wpt lat="29.0113267" lon="104.7742682"><ele>275</ele><name>
        </name></wpt>
  <wpt lat="29.0123796" lon="104.7735707"><ele>276</ele><name>
        </name></wpt>
  <wpt lat="29.0128478" lon="104.7741581"><ele>270</ele><name>
        </name></wpt>
  <wpt lat="29.0133243" lon="104.774975"><ele>261</ele><name>
        </name></wpt>
  <wpt lat="29.01783" lon="104.7782433"><ele>305</ele><name>
        </name></wpt>
  <trk><name>自贡富顺县</name>
      <trkseg>
        <trkpt lat="29.0196032" lon="104.7791746"><ele>324</ele><time>2025-12-19T17:05:49.000Z</time></trkpt>
        <trkpt lat="29.0195262" lon="104.7789637"><ele>324</ele><time>2025-12-19T17:05:51.000Z</time></trkpt>
        <trkpt lat="29.0194181" lon="104.7788917"><ele>323.66</ele><time>2025-12-19T17:05:53.000Z</time></trkpt>
        <trkpt lat="29.0193342" lon="104.7788429"><ele>323.03</ele><time>2025-12-19T17:05:55.000Z</time></trkpt>
        <trkpt lat="29.0193087" lon="104.7787426"><ele>322.24</ele><time>2025-12-19T17:05:57.000Z</time></trkpt>
        <trkpt lat="29.0192974" lon="104.7786056"><ele>321.23</ele><time>2025-12-19T17:05:59.000Z</time></trkpt>
        <trkpt lat="29.0192545" lon="104.7784481"><ele>320.14</ele><time>2025-12-19T17:06:01.000Z</time></trkpt>
        <trkpt lat="29.0191665" lon="104.778294"><ele>319.22</ele><time>2025-12-19T17:06:03.000Z</time></trkpt>
        <trkpt lat="29.0190799" lon="104.7781341"><ele>318.4</ele><time>2025-12-19T17:06:05.000Z</time></trkpt>
        <trkpt lat="29.0189904" lon="104.7779864"><ele>317.54</ele><time>2025-12-19T17:06:07.000Z</time></trkpt>
        <trkpt lat="29.0188773" lon="104.7778853"><ele>316.75</ele><time>2025-12-19T17:06:09.000Z</time></trkpt>
        <trkpt lat="29.0187678" lon="104.7778534"><ele>316.43</ele><time>2025-12-19T17:06:11.000Z</time></trkpt>
        <trkpt lat="29.0186538" lon="104.7778466"><ele>316.29</ele><time>2025-12-19T17:06:13.000Z</time></trkpt>
        <trkpt lat="29.0185265" lon="104.7778425"><ele>316.16</ele><time>2025-12-19T17:06:15.000Z</time></trkpt>
        <trkpt lat="29.0183848" lon="104.7778264"><ele>315.88</ele><time>2025-12-19T17:06:17.000Z</time></trkpt>
        <trkpt lat="29.0182553" lon="104.7777698"><ele>315.5</ele><time>2025-12-19T17:06:19.000Z</time></trkpt>
        <trkpt lat="29.0181566" lon="104.7776678"><ele>315.07</ele><time>2025-12-19T17:06:21.000Z</time></trkpt>
        <trkpt lat="29.0181381" lon="104.7775285"><ele>314.65</ele><time>2025-12-19T17:06:23.000Z</time></trkpt>
        <trkpt lat="29.0182162" lon="104.7773629"><ele>314.41</ele><time>2025-12-19T17:06:25.000Z</time></trkpt>
        <trkpt lat="29.0183354" lon="104.7771965"><ele>314.8</ele><time>2025-12-19T17:06:27.000Z</time></trkpt>
        <trkpt lat="29.0184567" lon="104.7770421"><ele>314.97</ele><time>2025-12-19T17:06:29.000Z</time></trkpt>
        <trkpt lat="29.0185771" lon="104.7769078"><ele>314.98</ele><time>2025-12-19T17:06:31.000Z</time></trkpt>
        <trkpt lat="29.0186761" lon="104.776785"><ele>314.95</ele><time>2025-12-19T17:06:33.000Z</time></trkpt>
        <trkpt lat="29.0187041" lon="104.7766441"><ele>314.8</ele><time>2025-12-19T17:06:35.000Z</time></trkpt>
        <trkpt lat="29.018665" lon="104.7764942"><ele>314.67</ele><time>2025-12-19T17:06:37.000Z</time></trkpt>
        <trkpt lat="29.0185966" lon="104.776334"><ele>314.47</ele><time>2025-12-19T17:06:39.000Z</time></trkpt>
        <trkpt lat="29.0185483" lon="104.7761745"><ele>314.01</ele><time>2025-12-19T17:06:41.000Z</time></trkpt>
        <trkpt lat="29.0184883" lon="104.7760286"><ele>313.32</ele><time>2025-12-19T17:06:43.000Z</time></trkpt>
        <trkpt lat="29.0183878" lon="104.7759433"><ele>312.54</ele><time>2025-12-19T17:06:45.000Z</time></trkpt>
        <trkpt lat="29.0182401" lon="104.7759511"><ele>311.57</ele><time>2025-12-19T17:06:47.000Z</time></trkpt>
        <trkpt lat="29.0180755" lon="104.776053"><ele>310.51</ele><time>2025-12-19T17:06:49.000Z</time></trkpt>
        <trkpt lat="29.0179265" lon="104.7761637"><ele>309.52</ele><time>2025-12-19T17:06:51.000Z</time></trkpt>
        <trkpt lat="29.0177989" lon="104.776221"><ele>308.56</ele><time>2025-12-19T17:06:53.000Z</time></trkpt>
        <trkpt lat="29.0176923" lon="104.7761961"><ele>307.59</ele><time>2025-12-19T17:06:55.000Z</time></trkpt>
        <trkpt lat="29.017629" lon="104.7760975"><ele>306.73</ele><time>2025-12-19T17:06:57.000Z</time></trkpt>
        <trkpt lat="29.0176314" lon="104.7759364"><ele>305.82</ele><time>2025-12-19T17:06:59.000Z</time></trkpt>
        <trkpt lat="29.0176645" lon="104.7757678"><ele>304.91</ele><time>2025-12-19T17:07:01.000Z</time></trkpt>
        <trkpt lat="29.0176861" lon="104.7755995"><ele>304.21</ele><time>2025-12-19T17:07:03.000Z</time></trkpt>
        <trkpt lat="29.0176564" lon="104.7754492"><ele>303.52</ele><time>2025-12-19T17:07:05.000Z</time></trkpt>
        <trkpt lat="29.0175636" lon="104.7753477"><ele>302.65</ele><time>2025-12-19T17:07:07.000Z</time></trkpt>
        <trkpt lat="29.0174246" lon="104.7753067"><ele>301.55</ele><time>2025-12-19T17:07:09.000Z</time></trkpt>
        <trkpt lat="29.0172844" lon="104.7752739"><ele>300.28</ele><time>2025-12-19T17:07:11.000Z</time></trkpt>
        <trkpt lat="29.0171875" lon="104.7752006"><ele>298.78</ele><time>2025-12-19T17:07:13.000Z</time></trkpt>
        <trkpt lat="29.0171304" lon="104.7750533"><ele>297.24</ele><time>2025-12-19T17:07:15.000Z</time></trkpt>
        <trkpt lat="29.0170531" lon="104.7748996"><ele>295.42</ele><time>2025-12-19T17:07:17.000Z</time></trkpt>
        <trkpt lat="29.0169356" lon="104.7747805"><ele>293.65</ele><time>2025-12-19T17:07:19.000Z</time></trkpt>
        <trkpt lat="29.0167756" lon="104.7747218"><ele>292.16</ele><time>2025-12-19T17:07:21.000Z</time></trkpt>
        <trkpt lat="29.0165971" lon="104.774686"><ele>290.76</ele><time>2025-12-19T17:07:23.000Z</time></trkpt>
        <trkpt lat="29.0164114" lon="104.7746713"><ele>289.44</ele><time>2025-12-19T17:07:25.000Z</time></trkpt>
        <trkpt lat="29.0162297" lon="104.7747137"><ele>287.75</ele><time>2025-12-19T17:07:27.000Z</time></trkpt>
        <trkpt lat="29.0160639" lon="104.7747804"><ele>285.96</ele><time>2025-12-19T17:07:29.000Z</time></trkpt>
        <trkpt lat="29.0158984" lon="104.7748189"><ele>284.09</ele><time>2025-12-19T17:07:31.000Z</time></trkpt>
        <trkpt lat="29.0157314" lon="104.7748169"><ele>282.16</ele><time>2025-12-19T17:07:33.000Z</time></trkpt>
        <trkpt lat="29.0155597" lon="104.7748185"><ele>280.07</ele><time>2025-12-19T17:07:35.000Z</time></trkpt>
        <trkpt lat="29.0153888" lon="104.7748321"><ele>277.76</ele><time>2025-12-19T17:07:37.000Z</time></trkpt>
        <trkpt lat="29.0152284" lon="104.7748447"><ele>275.5</ele><time>2025-12-19T17:07:39.000Z</time></trkpt>
        <trkpt lat="29.0151108" lon="104.7748154"><ele>273.43</ele><time>2025-12-19T17:07:41.000Z</time></trkpt>
        <trkpt lat="29.0150546" lon="104.7747031"><ele>271.78</ele><time>2025-12-19T17:07:43.000Z</time></trkpt>
        <trkpt lat="29.0150482" lon="104.7745727"><ele>270.2</ele><time>2025-12-19T17:07:45.000Z</time></trkpt>
        <trkpt lat="29.0150529" lon="104.774419"><ele>268.82</ele><time>2025-12-19T17:07:47.000Z</time></trkpt>
        <trkpt lat="29.0150462" lon="104.774252"><ele>267.48</ele><time>2025-12-19T17:07:49.000Z</time></trkpt>
        <trkpt lat="29.0150521" lon="104.7740824"><ele>266.07</ele><time>2025-12-19T17:07:51.000Z</time></trkpt>
        <trkpt lat="29.0150901" lon="104.7739268"><ele>264.75</ele><time>2025-12-19T17:07:53.000Z</time></trkpt>
        <trkpt lat="29.0151186" lon="104.7737779"><ele>263.78</ele><time>2025-12-19T17:07:55.000Z</time></trkpt>
        <trkpt lat="29.015086" lon="104.7736326"><ele>263.02</ele><time>2025-12-19T17:07:57.000Z</time></trkpt>
        <trkpt lat="29.014984" lon="104.7735323"><ele>262.41</ele><time>2025-12-19T17:07:59.000Z</time></trkpt>
        <trkpt lat="29.014817" lon="104.7734867"><ele>261.84</ele><time>2025-12-19T17:08:01.000Z</time></trkpt>
        <trkpt lat="29.0146441" lon="104.7734534"><ele>261.65</ele><time>2025-12-19T17:08:03.000Z</time></trkpt>
        <trkpt lat="29.014488" lon="104.7734441"><ele>261.33</ele><time>2025-12-19T17:08:05.000Z</time></trkpt>
        <trkpt lat="29.0143355" lon="104.7735018"><ele>260.93</ele><time>2025-12-19T17:08:07.000Z</time></trkpt>
        <trkpt lat="29.0142042" lon="104.7736187"><ele>260.19</ele><time>2025-12-19T17:08:09.000Z</time></trkpt>
        <trkpt lat="29.0141022" lon="104.7737808"><ele>259.5</ele><time>2025-12-19T17:08:11.000Z</time></trkpt>
        <trkpt lat="29.0140413" lon="104.7739596"><ele>258.9</ele><time>2025-12-19T17:08:13.000Z</time></trkpt>
        <trkpt lat="29.0140133" lon="104.7741226"><ele>258.3</ele><time>2025-12-19T17:08:15.000Z</time></trkpt>
        <trkpt lat="29.0139964" lon="104.7742685"><ele>258.21</ele><time>2025-12-19T17:08:17.000Z</time></trkpt>
        <trkpt lat="29.0139701" lon="104.774413"><ele>258.59</ele><time>2025-12-19T17:08:19.000Z</time></trkpt>
        <trkpt lat="29.0139239" lon="104.7745537"><ele>259.11</ele><time>2025-12-19T17:08:21.000Z</time></trkpt>
        <trkpt lat="29.0138472" lon="104.7746831"><ele>259.49</ele><time>2025-12-19T17:08:23.000Z</time></trkpt>
        <trkpt lat="29.0137324" lon="104.7747988"><ele>259.54</ele><time>2025-12-19T17:08:25.000Z</time></trkpt>
        <trkpt lat="29.0135919" lon="104.7748851"><ele>259.44</ele><time>2025-12-19T17:08:27.000Z</time></trkpt>
        <trkpt lat="29.0134503" lon="104.7749532"><ele>259.51</ele><time>2025-12-19T17:08:29.000Z</time></trkpt>
        <trkpt lat="29.0133238" lon="104.7749855"><ele>259.85</ele><time>2025-12-19T17:08:31.000Z</time></trkpt>
        <trkpt lat="29.0132033" lon="104.7749481"><ele>260.17</ele><time>2025-12-19T17:08:33.000Z</time></trkpt>
        <trkpt lat="29.0130938" lon="104.7748745"><ele>260.23</ele><time>2025-12-19T17:08:35.000Z</time></trkpt>
        <trkpt lat="29.0130043" lon="104.7747807"><ele>260.43</ele><time>2025-12-19T17:08:39.000Z</time></trkpt>
        <trkpt lat="29.0129301" lon="104.7746631"><ele>261.92</ele><time>2025-12-19T17:08:43.000Z</time></trkpt>
        <trkpt lat="29.0128751" lon="104.7745104"><ele>263.76</ele><time>2025-12-19T17:08:47.000Z</time></trkpt>
        <trkpt lat="29.0128354" lon="104.7743557"><ele>265.97</ele><time>2025-12-19T17:08:51.000Z</time></trkpt>
        <trkpt lat="29.012782" lon="104.7741902"><ele>267.79</ele><time>2025-12-19T17:08:55.000Z</time></trkpt>
        <trkpt lat="29.0127228" lon="104.7740765"><ele>269.47</ele><time>2025-12-19T17:08:57.000Z</time></trkpt>
        <trkpt lat="29.0126426" lon="104.7739848"><ele>270.69</ele><time>2025-12-19T17:08:59.000Z</time></trkpt>
        <trkpt lat="29.0125373" lon="104.773943"><ele>271.51</ele><time>2025-12-19T17:09:01.000Z</time></trkpt>
        <trkpt lat="29.0124267" lon="104.7739597"><ele>273.05</ele><time>2025-12-19T17:09:04.000Z</time></trkpt>
        <trkpt lat="29.0122647" lon="104.7740816"><ele>274.92</ele><time>2025-12-19T17:09:07.000Z</time></trkpt>
        <trkpt lat="29.0121743" lon="104.7742053"><ele>278.05</ele><time>2025-12-19T17:09:09.000Z</time></trkpt>
        <trkpt lat="29.0121036" lon="104.7743236"><ele>280.87</ele><time>2025-12-19T17:09:11.000Z</time></trkpt>
        <trkpt lat="29.0120456" lon="104.7744415"><ele>282.86</ele><time>2025-12-19T17:09:13.000Z</time></trkpt>
        <trkpt lat="29.01199" lon="104.7745509"><ele>284.6</ele><time>2025-12-19T17:09:15.000Z</time></trkpt>
        <trkpt lat="29.0119309" lon="104.7746635"><ele>285.98</ele><time>2025-12-19T17:09:17.000Z</time></trkpt>
        <trkpt lat="29.0118657" lon="104.7747747"><ele>287.53</ele><time>2025-12-19T17:09:19.000Z</time></trkpt>
        <trkpt lat="29.0117604" lon="104.7749151"><ele>288.9</ele><time>2025-12-19T17:09:23.000Z</time></trkpt>
        <trkpt lat="29.0116642" lon="104.7749974"><ele>291.31</ele><time>2025-12-19T17:09:25.000Z</time></trkpt>
        <trkpt lat="29.0115674" lon="104.7750567"><ele>293.67</ele><time>2025-12-19T17:09:27.000Z</time></trkpt>
        <trkpt lat="29.0114812" lon="104.7751087"><ele>295.58</ele><time>2025-12-19T17:09:29.000Z</time></trkpt>
        <trkpt lat="29.0113503" lon="104.7751881"><ele>297.35</ele><time>2025-12-19T17:09:33.000Z</time></trkpt>
        <trkpt lat="29.0112541" lon="104.7752554"><ele>300.55</ele><time>2025-12-19T17:09:35.000Z</time></trkpt>
        <trkpt lat="29.0111703" lon="104.7753228"><ele>303.16</ele><time>2025-12-19T17:09:37.000Z</time></trkpt>
        <trkpt lat="29.0110866" lon="104.775383"><ele>305.28</ele><time>2025-12-19T17:09:39.000Z</time></trkpt>
        <trkpt lat="29.0110056" lon="104.7754332"><ele>306.75</ele><time>2025-12-19T17:09:41.000Z</time></trkpt>
        <trkpt lat="29.0109163" lon="104.7755905"><ele>307.38</ele><time>2025-12-19T17:09:45.000Z</time></trkpt>
        <trkpt lat="29.0108774" lon="104.7757476"><ele>307.21</ele><time>2025-12-19T17:09:47.000Z</time></trkpt>
        <trkpt lat="29.0108533" lon="104.7758855"><ele>307.25</ele><time>2025-12-19T17:09:49.000Z</time></trkpt>
        <trkpt lat="29.010822" lon="104.7760134"><ele>307.53</ele><time>2025-12-19T17:09:51.000Z</time></trkpt>
        <trkpt lat="29.0107657" lon="104.7761436"><ele>307.99</ele><time>2025-12-19T17:09:53.000Z</time></trkpt>
        <trkpt lat="29.0106784" lon="104.776271"><ele>308.38</ele><time>2025-12-19T17:09:55.000Z</time></trkpt>
        <trkpt lat="29.0105793" lon="104.776385"><ele>308.99</ele><time>2025-12-19T17:09:57.000Z</time></trkpt>
        <trkpt lat="29.0104631" lon="104.7764955"><ele>309.9</ele><time>2025-12-19T17:09:59.000Z</time></trkpt>
        <trkpt lat="29.0103426" lon="104.776608"><ele>311.1</ele><time>2025-12-19T17:10:01.000Z</time></trkpt>
        <trkpt lat="29.010216" lon="104.7767081"><ele>312.31</ele><time>2025-12-19T17:10:03.000Z</time></trkpt>
        <trkpt lat="29.0100797" lon="104.7767814"><ele>313.38</ele><time>2025-12-19T17:10:05.000Z</time></trkpt>
        <trkpt lat="29.0099497" lon="104.7768319"><ele>314.25</ele><time>2025-12-19T17:10:07.000Z</time></trkpt>
        <trkpt lat="29.0098355" lon="104.7768685"><ele>315.95</ele><time>2025-12-19T17:10:09.000Z</time></trkpt>
        <trkpt lat="29.009731" lon="104.776901"><ele>317.91</ele><time>2025-12-19T17:10:11.000Z</time></trkpt>
        <trkpt lat="29.0096231" lon="104.7769314"><ele>319.67</ele><time>2025-12-19T17:10:13.000Z</time></trkpt>
        <trkpt lat="29.0094955" lon="104.7769648"><ele>320.89</ele><time>2025-12-19T17:10:15.000Z</time></trkpt>
        <trkpt lat="29.0093467" lon="104.7770027"><ele>321.58</ele><time>2025-12-19T17:10:17.000Z</time></trkpt>
        <trkpt lat="29.0091871" lon="104.7770436"><ele>321.72</ele><time>2025-12-19T17:10:19.000Z</time></trkpt>
        <trkpt lat="29.0090254" lon="104.7770693"><ele>321.41</ele><time>2025-12-19T17:10:21.000Z</time></trkpt>
        <trkpt lat="29.0088781" lon="104.7770567"><ele>320.67</ele><time>2025-12-19T17:10:23.000Z</time></trkpt>
        <trkpt lat="29.0087395" lon="104.777057"><ele>319.95</ele><time>2025-12-19T17:10:25.000Z</time></trkpt>
        <trkpt lat="29.0086024" lon="104.7771021"><ele>319.37</ele><time>2025-12-19T17:10:27.000Z</time></trkpt>
        <trkpt lat="29.0084666" lon="104.7771755"><ele>318.82</ele><time>2025-12-19T17:10:29.000Z</time></trkpt>
        <trkpt lat="29.0083282" lon="104.777252"><ele>318.3</ele><time>2025-12-19T17:10:31.000Z</time></trkpt>
        <trkpt lat="29.0081924" lon="104.7773058"><ele>318.04</ele><time>2025-12-19T17:10:33.000Z</time></trkpt>
        <trkpt lat="29.0080763" lon="104.7773659"><ele>318.02</ele><time>2025-12-19T17:10:35.000Z</time></trkpt>
        <trkpt lat="29.0079923" lon="104.7774537"><ele>318.31</ele><time>2025-12-19T17:10:37.000Z</time></trkpt>
        <trkpt lat="29.0079377" lon="104.7775553"><ele>318.78</ele><time>2025-12-19T17:10:39.000Z</time></trkpt>
        <trkpt lat="29.0079001" lon="104.7776642"><ele>319.86</ele><time>2025-12-19T17:10:42.000Z</time></trkpt>
        <trkpt lat="29.0078948" lon="104.777779"><ele>321.13</ele><time>2025-12-19T17:10:43.000Z</time></trkpt>
        <trkpt lat="29.0079263" lon="104.7778823"><ele>322.79</ele><time>2025-12-19T17:10:45.000Z</time></trkpt>
        <trkpt lat="29.007972" lon="104.7779867"><ele>324.95</ele><time>2025-12-19T17:10:47.000Z</time></trkpt>
        <trkpt lat="29.0079741" lon="104.7781403"><ele>327.81</ele><time>2025-12-19T17:10:51.000Z</time></trkpt>
        <trkpt lat="29.0079137" lon="104.778307"><ele>331.16</ele><time>2025-12-19T17:10:55.000Z</time></trkpt>
        <trkpt lat="29.0079104" lon="104.7784357"><ele>334.62</ele><time>2025-12-19T17:10:57.000Z</time></trkpt>
        <trkpt lat="29.0079556" lon="104.7785333"><ele>337.11</ele><time>2025-12-19T17:10:59.000Z</time></trkpt>
        <trkpt lat="29.0080651" lon="104.7786781"><ele>339.21</ele><time>2025-12-19T17:11:03.000Z</time></trkpt>
        <trkpt lat="29.0081686" lon="104.7787797"><ele>341.83</ele><time>2025-12-19T17:11:05.000Z</time></trkpt>
        <trkpt lat="29.0082584" lon="104.7788629"><ele>343.88</ele><time>2025-12-19T17:11:07.000Z</time></trkpt>
        <trkpt lat="29.0083319" lon="104.7789473"><ele>345.31</ele><time>2025-12-19T17:11:09.000Z</time></trkpt>
        <trkpt lat="29.0083815" lon="104.7790527"><ele>346.21</ele><time>2025-12-19T17:11:11.000Z</time></trkpt>
        <trkpt lat="29.0084104" lon="104.7791654"><ele>347.15</ele><time>2025-12-19T17:11:13.000Z</time></trkpt>
        <trkpt lat="29.0084471" lon="104.779269"><ele>347.82</ele><time>2025-12-19T17:11:15.000Z</time></trkpt>
        <trkpt lat="29.0085088" lon="104.7793596"><ele>348.41</ele><time>2025-12-19T17:11:17.000Z</time></trkpt>
        <trkpt lat="29.0086064" lon="104.7794431"><ele>348.84</ele><time>2025-12-19T17:11:19.000Z</time></trkpt>
        <trkpt lat="29.0087213" lon="104.7795286"><ele>349.08</ele><time>2025-12-19T17:11:21.000Z</time></trkpt>
        <trkpt lat="29.0088385" lon="104.7796155"><ele>349.48</ele><time>2025-12-19T17:11:23.000Z</time></trkpt>
        <trkpt lat="29.0089557" lon="104.7796908"><ele>350.22</ele><time>2025-12-19T17:11:25.000Z</time></trkpt>
        <trkpt lat="29.0090678" lon="104.7797594"><ele>351.11</ele><time>2025-12-19T17:11:27.000Z</time></trkpt>
        <trkpt lat="29.0091685" lon="104.7798225"><ele>351.97</ele><time>2025-12-19T17:11:29.000Z</time></trkpt>
        <trkpt lat="29.0092474" lon="104.7798868"><ele>352.93</ele><time>2025-12-19T17:11:31.000Z</time></trkpt>
        <trkpt lat="29.0092638" lon="104.7800499"><ele>353.69</ele><time>2025-12-19T17:11:35.000Z</time></trkpt>
        <trkpt lat="29.0092451" lon="104.7801818"><ele>354.38</ele><time>2025-12-19T17:11:37.000Z</time></trkpt>
        <trkpt lat="29.0092529" lon="104.7803071"><ele>354.65</ele><time>2025-12-19T17:11:39.000Z</time></trkpt>
        <trkpt lat="29.0092933" lon="104.7804188"><ele>354.46</ele><time>2025-12-19T17:11:41.000Z</time></trkpt>
        <trkpt lat="29.0093551" lon="104.7805291"><ele>354</ele><time>2025-12-19T17:11:43.000Z</time></trkpt>
        <trkpt lat="29.0093796" lon="104.7806521"><ele>353.14</ele><time>2025-12-19T17:11:45.000Z</time></trkpt>
        <trkpt lat="29.0093434" lon="104.7807726"><ele>352.18</ele><time>2025-12-19T17:11:47.000Z</time></trkpt>
        <trkpt lat="29.0092472" lon="104.7808767"><ele>350.9</ele><time>2025-12-19T17:11:49.000Z</time></trkpt>
        <trkpt lat="29.0091231" lon="104.7809434"><ele>349.78</ele><time>2025-12-19T17:11:51.000Z</time></trkpt>
        <trkpt lat="29.0090065" lon="104.7809647"><ele>348.97</ele><time>2025-12-19T17:11:53.000Z</time></trkpt>
        <trkpt lat="29.008887" lon="104.7810032"><ele>348.42</ele><time>2025-12-19T17:11:57.000Z</time></trkpt>
        <trkpt lat="29.0088023" lon="104.7810793"><ele>349.23</ele><time>2025-12-19T17:12:01.000Z</time></trkpt>
        <trkpt lat="29.0087326" lon="104.7812192"><ele>350.29</ele><time>2025-12-19T17:12:05.000Z</time></trkpt>
        <trkpt lat="29.0086571" lon="104.7813795"><ele>351.24</ele><time>2025-12-19T17:12:09.000Z</time></trkpt>
        <trkpt lat="29.0085592" lon="104.7815493"><ele>352.34</ele><time>2025-12-19T17:12:13.000Z</time></trkpt>
        <trkpt lat="29.0084439" lon="104.781723"><ele>353.1</ele><time>2025-12-19T17:12:17.000Z</time></trkpt>
        <trkpt lat="29.0083532" lon="104.7818456"><ele>353.79</ele><time>2025-12-19T17:12:19.000Z</time></trkpt>
        <trkpt lat="29.008273" lon="104.7819594"><ele>354.31</ele><time>2025-12-19T17:12:21.000Z</time></trkpt>
        <trkpt lat="29.0081936" lon="104.7820783"><ele>355.12</ele><time>2025-12-19T17:12:23.000Z</time></trkpt>
        <trkpt lat="29.0081274" lon="104.7822006"><ele>355.8</ele><time>2025-12-19T17:12:25.000Z</time></trkpt>
        <trkpt lat="29.008098" lon="104.7823398"><ele>356.49</ele><time>2025-12-19T17:12:27.000Z</time></trkpt>
        <trkpt lat="29.0081048" lon="104.7824776"><ele>357.22</ele><time>2025-12-19T17:12:29.000Z</time></trkpt>
        <trkpt lat="29.0081137" lon="104.7826042"><ele>357.99</ele><time>2025-12-19T17:12:31.000Z</time></trkpt>
        <trkpt lat="29.0080848" lon="104.7827111"><ele>358.55</ele><time>2025-12-19T17:12:33.000Z</time></trkpt>
        <trkpt lat="29.0080115" lon="104.7827876"><ele>359.05</ele><time>2025-12-19T17:12:35.000Z</time></trkpt>
        <trkpt lat="29.007918" lon="104.7828479"><ele>359.16</ele><time>2025-12-19T17:12:37.000Z</time></trkpt>
        <trkpt lat="29.0078514" lon="104.782951"><ele>359.09</ele><time>2025-12-19T17:12:39.000Z</time></trkpt>
        <trkpt lat="29.0078274" lon="104.7830819"><ele>358.96</ele><time>2025-12-19T17:12:41.000Z</time></trkpt>
        <trkpt lat="29.007829" lon="104.783223"><ele>359.19</ele><time>2025-12-19T17:12:43.000Z</time></trkpt>
        <trkpt lat="29.0078175" lon="104.7833494"><ele>359.8</ele><time>2025-12-19T17:12:45.000Z</time></trkpt>
        <trkpt lat="29.0077886" lon="104.7834599"><ele>360.44</ele><time>2025-12-19T17:12:47.000Z</time></trkpt>
        <trkpt lat="29.0077475" lon="104.7835608"><ele>361.16</ele><time>2025-12-19T17:12:49.000Z</time></trkpt>
        <trkpt lat="29.0077002" lon="104.7836527"><ele>361.99</ele><time>2025-12-19T17:12:51.000Z</time></trkpt>
        <trkpt lat="29.0076678" lon="104.7837962"><ele>362.86</ele><time>2025-12-19T17:12:55.000Z</time></trkpt>
        <trkpt lat="29.0076969" lon="104.7839482"><ele>363.56</ele><time>2025-12-19T17:12:59.000Z</time></trkpt>
        <trkpt lat="29.0077542" lon="104.784121"><ele>363.97</ele><time>2025-12-19T17:13:03.000Z</time></trkpt>
        <trkpt lat="29.0077833" lon="104.784251"><ele>363.25</ele><time>2025-12-19T17:13:05.000Z</time></trkpt>
        <trkpt lat="29.0077623" lon="104.7843996"><ele>362.24</ele><time>2025-12-19T17:13:09.000Z</time></trkpt>
        <trkpt lat="29.0077554" lon="104.784461"><ele>360.97</ele><time>2025-12-19T17:13:13.000Z</time></trkpt>
        <trkpt lat="29.007695" lon="104.784515"><ele>359.87</ele><time>2025-12-19T17:15:35.000Z</time></trkpt>
        <trkpt lat="29.0076033" lon="104.7845517"><ele>358.63</ele><time>2025-12-19T17:17:59.000Z</time></trkpt>
        <trkpt lat="29.00752" lon="104.7846017"><ele>358.32</ele><time>2025-12-19T17:18:18.000Z</time></trkpt>
        <trkpt lat="29.0074451" lon="104.7846601"><ele>358.14</ele><time>2025-12-19T17:18:24.000Z</time></trkpt>
        <trkpt lat="29.0073782" lon="104.7847394"><ele>357.99</ele><time>2025-12-19T17:18:32.000Z</time></trkpt>
        <trkpt lat="29.0073138" lon="104.7848152"><ele>358.47</ele><time>2025-12-19T17:18:40.000Z</time></trkpt>
        <trkpt lat="29.0072837" lon="104.7849139"><ele>359</ele><time>2025-12-19T17:18:46.000Z</time></trkpt>
        <trkpt lat="29.007242" lon="104.7850119"><ele>358.96</ele><time>2025-12-19T17:18:56.000Z</time></trkpt>
        <trkpt lat="29.0071675" lon="104.7849917"><ele>358.63</ele><time>2025-12-19T17:19:04.000Z</time></trkpt>
        <trkpt lat="29.0070744" lon="104.7849499"><ele>357.89</ele><time>2025-12-19T17:19:13.000Z</time></trkpt>
        <trkpt lat="29.0070461" lon="104.7848425"><ele>356.43</ele><time>2025-12-19T17:19:29.000Z</time></trkpt>
        <trkpt lat="29.0070007" lon="104.784738"><ele>356.33</ele><time>2025-12-19T17:19:41.000Z</time></trkpt>
        <trkpt lat="29.0069315" lon="104.7846493"><ele>357.44</ele><time>2025-12-19T17:19:51.000Z</time></trkpt>
        <trkpt lat="29.0068607" lon="104.7845732"><ele>358.8</ele><time>2025-12-19T17:20:03.000Z</time></trkpt>
        <trkpt lat="29.0067903" lon="104.7844998"><ele>360.17</ele><time>2025-12-19T17:20:11.000Z</time></trkpt>
        <trkpt lat="29.0067045" lon="104.7844233"><ele>360.83</ele><time>2025-12-19T17:20:23.000Z</time></trkpt>
        <trkpt lat="29.0066321" lon="104.784333"><ele>360.95</ele><time>2025-12-19T17:20:33.000Z</time></trkpt>
        <trkpt lat="29.0065507" lon="104.7842675"><ele>360.71</ele><time>2025-12-19T17:20:43.000Z</time></trkpt>
        <trkpt lat="29.0064532" lon="104.7842383"><ele>360.45</ele><time>2025-12-19T17:20:51.000Z</time></trkpt>
        <trkpt lat="29.0063591" lon="104.7842263"><ele>360.94</ele><time>2025-12-19T17:21:00.000Z</time></trkpt>
        <trkpt lat="29.0062597" lon="104.7842281"><ele>361.4</ele><time>2025-12-19T17:21:09.000Z</time></trkpt>
        <trkpt lat="29.0061663" lon="104.7842378"><ele>361.87</ele><time>2025-12-19T17:21:21.000Z</time></trkpt>
        <trkpt lat="29.0060543" lon="104.7842483"><ele>363.09</ele><time>2025-12-19T17:21:29.000Z</time></trkpt>
        <trkpt lat="29.0059555" lon="104.784279"><ele>362.79</ele><time>2025-12-19T17:21:39.000Z</time></trkpt>
        <trkpt lat="29.0058562" lon="104.7842762"><ele>360.26</ele><time>2025-12-19T17:21:51.000Z</time></trkpt>
        <trkpt lat="29.0057553" lon="104.7842908"><ele>358.34</ele><time>2025-12-19T17:22:05.000Z</time></trkpt>
        <trkpt lat="29.0056562" lon="104.7842941"><ele>357.89</ele><time>2025-12-19T17:22:15.000Z</time></trkpt>
        <trkpt lat="29.0055528" lon="104.7843178"><ele>357.08</ele><time>2025-12-19T17:22:31.000Z</time></trkpt>
        <trkpt lat="29.0054804" lon="104.7842631"><ele>355.15</ele><time>2025-12-19T17:22:40.000Z</time></trkpt>
        <trkpt lat="29.0054019" lon="104.7842012"><ele>353.28</ele><time>2025-12-19T17:22:53.000Z</time></trkpt>
        <trkpt lat="29.0053159" lon="104.7841544"><ele>350.79</ele><time>2025-12-19T17:23:01.000Z</time></trkpt>
        <trkpt lat="29.0052303" lon="104.784088"><ele>348.73</ele><time>2025-12-19T17:23:11.000Z</time></trkpt>
        <trkpt lat="29.0051463" lon="104.7840135"><ele>346.95</ele><time>2025-12-19T17:23:25.000Z</time></trkpt>
        <trkpt lat="29.0050892" lon="104.7839112"><ele>345.08</ele><time>2025-12-19T17:23:35.000Z</time></trkpt>
        <trkpt lat="29.0050194" lon="104.7838249"><ele>344.92</ele><time>2025-12-19T17:23:43.000Z</time></trkpt>
        <trkpt lat="29.0049309" lon="104.7838354"><ele>344.87</ele><time>2025-12-19T17:23:55.000Z</time></trkpt>
        <trkpt lat="29.0048567" lon="104.7839029"><ele>344.84</ele><time>2025-12-19T17:24:03.000Z</time></trkpt>
        <trkpt lat="29.0047975" lon="104.7839998"><ele>345.08</ele><time>2025-12-19T17:24:13.000Z</time></trkpt>
        <trkpt lat="29.004716" lon="104.7840828"><ele>345.56</ele><time>2025-12-19T17:24:23.000Z</time></trkpt>
        <trkpt lat="29.0046328" lon="104.7841422"><ele>345.75</ele><time>2025-12-19T17:24:39.000Z</time></trkpt>
        <trkpt lat="29.0045623" lon="104.7842188"><ele>346.46</ele><time>2025-12-19T17:24:57.000Z</time></trkpt>
        <trkpt lat="29.0044756" lon="104.7842557"><ele>344.97</ele><time>2025-12-19T17:25:17.000Z</time></trkpt>
        <trkpt lat="29.0043825" lon="104.7843012"><ele>343.99</ele><time>2025-12-19T17:25:27.000Z</time></trkpt>
        <trkpt lat="29.0043992" lon="104.7842238"><ele>341.93</ele><time>2025-12-19T17:25:51.000Z</time></trkpt>
        <trkpt lat="29.0043052" lon="104.7842223"><ele>341.45</ele><time>2025-12-19T17:25:55.000Z</time></trkpt>
        <trkpt lat="29.0042853" lon="104.7841427"><ele>340.39</ele><time>2025-12-19T17:26:19.000Z</time></trkpt>
        <trkpt lat="29.0042855" lon="104.7840179"><ele>336.74</ele><time>2025-12-19T17:26:31.000Z</time></trkpt>
        <trkpt lat="29.0043007" lon="104.7838794"><ele>335.09</ele><time>2025-12-19T17:26:39.000Z</time></trkpt>
        <trkpt lat="29.0043402" lon="104.7837667"><ele>333.76</ele><time>2025-12-19T17:26:59.000Z</time></trkpt>
        <trkpt lat="29.0042717" lon="104.78382"><ele>333.56</ele><time>2025-12-19T17:28:23.000Z</time></trkpt>
        <trkpt lat="29.0043133" lon="104.783705"><ele>330.44</ele><time>2025-12-19T17:29:27.000Z</time></trkpt>
        <trkpt lat="29.0042883" lon="104.7835767"><ele>328.1</ele><time>2025-12-19T17:29:35.000Z</time></trkpt>
        <trkpt lat="29.0042774" lon="104.7834512"><ele>326.68</ele><time>2025-12-19T17:29:45.000Z</time></trkpt>
        <trkpt lat="29.0042832" lon="104.7833274"><ele>325.44</ele><time>2025-12-19T17:29:53.000Z</time></trkpt>
        <trkpt lat="29.0043042" lon="104.7832218"><ele>323.83</ele><time>2025-12-19T17:30:05.000Z</time></trkpt>
        <trkpt lat="29.0042964" lon="104.7831002"><ele>321.97</ele><time>2025-12-19T17:30:15.000Z</time></trkpt>
        <trkpt lat="29.00421" lon="104.7830333"><ele>320.78</ele><time>2025-12-19T17:31:51.000Z</time></trkpt>
        <trkpt lat="29.00424" lon="104.7829317"><ele>316.23</ele><time>2025-12-19T17:32:07.000Z</time></trkpt>
        <trkpt lat="29.0042474" lon="104.7828286"><ele>314.32</ele><time>2025-12-19T17:32:15.000Z</time></trkpt>
        <trkpt lat="29.0041917" lon="104.7827458"><ele>313.54</ele><time>2025-12-19T17:32:23.000Z</time></trkpt>
        <trkpt lat="29.0041362" lon="104.7826569"><ele>312.75</ele><time>2025-12-19T17:32:35.000Z</time></trkpt>
        <trkpt lat="29.0041817" lon="104.7825814"><ele>311.18</ele><time>2025-12-19T17:32:49.000Z</time></trkpt>
        <trkpt lat="29.0042137" lon="104.7824718"><ele>309.94</ele><time>2025-12-19T17:32:53.000Z</time></trkpt>
        <trkpt lat="29.0042664" lon="104.7823577"><ele>309.58</ele><time>2025-12-19T17:33:05.000Z</time></trkpt>
        <trkpt lat="29.0043576" lon="104.7823021"><ele>307.87</ele><time>2025-12-19T17:33:09.000Z</time></trkpt>
        <trkpt lat="29.0044771" lon="104.7822728"><ele>307.24</ele><time>2025-12-19T17:33:23.000Z</time></trkpt>
        <trkpt lat="29.0045914" lon="104.7823229"><ele>307.65</ele><time>2025-12-19T17:33:35.000Z</time></trkpt>
        <trkpt lat="29.0046817" lon="104.7823954"><ele>309.44</ele><time>2025-12-19T17:33:41.000Z</time></trkpt>
        <trkpt lat="29.0047706" lon="104.7824565"><ele>311.87</ele><time>2025-12-19T17:33:51.000Z</time></trkpt>
        <trkpt lat="29.0048533" lon="104.7824265"><ele>313.13</ele><time>2025-12-19T17:33:59.000Z</time></trkpt>
        <trkpt lat="29.004944" lon="104.7823539"><ele>313.55</ele><time>2025-12-19T17:34:09.000Z</time></trkpt>
        <trkpt lat="29.005017" lon="104.7822574"><ele>313.14</ele><time>2025-12-19T17:34:19.000Z</time></trkpt>
        <trkpt lat="29.0050784" lon="104.7821441"><ele>314.07</ele><time>2025-12-19T17:34:31.000Z</time></trkpt>
        <trkpt lat="29.0051589" lon="104.7820685"><ele>315.89</ele><time>2025-12-19T17:34:39.000Z</time></trkpt>
        <trkpt lat="29.0051962" lon="104.7819631"><ele>317.79</ele><time>2025-12-19T17:34:49.000Z</time></trkpt>
        <trkpt lat="29.0052184" lon="104.7818514"><ele>318.87</ele><time>2025-12-19T17:34:59.000Z</time></trkpt>
        <trkpt lat="29.0053012" lon="104.7818327"><ele>319.91</ele><time>2025-12-19T17:35:09.000Z</time></trkpt>
        <trkpt lat="29.005393" lon="104.7818151"><ele>320.25</ele><time>2025-12-19T17:35:17.000Z</time></trkpt>
        <trkpt lat="29.0054633" lon="104.7817471"><ele>320.06</ele><time>2025-12-19T17:35:25.000Z</time></trkpt>
        <trkpt lat="29.0054702" lon="104.7816382"><ele>318.53</ele><time>2025-12-19T17:35:35.000Z</time></trkpt>
        <trkpt lat="29.0054241" lon="104.7815321"><ele>316.41</ele><time>2025-12-19T17:35:45.000Z</time></trkpt>
        <trkpt lat="29.0054011" lon="104.7814187"><ele>315.07</ele><time>2025-12-19T17:35:57.000Z</time></trkpt>
        <trkpt lat="29.0054002" lon="104.7812991"><ele>313.62</ele><time>2025-12-19T17:36:09.000Z</time></trkpt>
        <trkpt lat="29.0054036" lon="104.7811797"><ele>312.11</ele><time>2025-12-19T17:36:23.000Z</time></trkpt>
        <trkpt lat="29.0053441" lon="104.7810976"><ele>311.11</ele><time>2025-12-19T17:36:33.000Z</time></trkpt>
        <trkpt lat="29.0052938" lon="104.7809958"><ele>311.07</ele><time>2025-12-19T17:36:43.000Z</time></trkpt>
        <trkpt lat="29.0053038" lon="104.7808901"><ele>311.94</ele><time>2025-12-19T17:36:55.000Z</time></trkpt>
        <trkpt lat="29.0053646" lon="104.7807943"><ele>312.18</ele><time>2025-12-19T17:37:05.000Z</time></trkpt>
        <trkpt lat="29.005435" lon="104.7807112"><ele>311.85</ele><time>2025-12-19T17:37:17.000Z</time></trkpt>
        <trkpt lat="29.0054859" lon="104.7806111"><ele>311.22</ele><time>2025-12-19T17:37:29.000Z</time></trkpt>
        <trkpt lat="29.0054443" lon="104.7805213"><ele>310.48</ele><time>2025-12-19T17:37:43.000Z</time></trkpt>
        <trkpt lat="29.0053748" lon="104.7804346"><ele>309.54</ele><time>2025-12-19T17:37:55.000Z</time></trkpt>
        <trkpt lat="29.0052699" lon="104.7804025"><ele>309.4</ele><time>2025-12-19T17:38:07.000Z</time></trkpt>
        <trkpt lat="29.0051737" lon="104.7804213"><ele>310.21</ele><time>2025-12-19T17:38:27.000Z</time></trkpt>
        <trkpt lat="29.0050697" lon="104.7804067"><ele>310.51</ele><time>2025-12-19T17:38:47.000Z</time></trkpt>
        <trkpt lat="29.0049734" lon="104.7803729"><ele>310.72</ele><time>2025-12-19T17:38:57.000Z</time></trkpt>
        <trkpt lat="29.0048875" lon="104.7804092"><ele>310.93</ele><time>2025-12-19T17:39:09.000Z</time></trkpt>
        <trkpt lat="29.0048407" lon="104.7805095"><ele>310.96</ele><time>2025-12-19T17:39:23.000Z</time></trkpt>
        <trkpt lat="29.004779" lon="104.7806046"><ele>311.02</ele><time>2025-12-19T17:39:41.000Z</time></trkpt>
        <trkpt lat="29.0046945" lon="104.7806587"><ele>311.79</ele><time>2025-12-19T17:39:49.000Z</time></trkpt>
        <trkpt lat="29.0046074" lon="104.7807104"><ele>312.61</ele><time>2025-12-19T17:40:03.000Z</time></trkpt>
        <trkpt lat="29.004528" lon="104.7807657"><ele>314.28</ele><time>2025-12-19T17:40:27.000Z</time></trkpt>
        <trkpt lat="29.0044332" lon="104.7807717"><ele>315.49</ele><time>2025-12-19T17:40:35.000Z</time></trkpt>
        <trkpt lat="29.0043341" lon="104.7807636"><ele>316.49</ele><time>2025-12-19T17:40:49.000Z</time></trkpt>
        <trkpt lat="29.0042316" lon="104.7807355"><ele>317.61</ele><time>2025-12-19T17:41:41.000Z</time></trkpt>
        <trkpt lat="29.0041223" lon="104.7807136"><ele>317.65</ele><time>2025-12-19T17:41:47.000Z</time></trkpt>
        <trkpt lat="29.0040261" lon="104.7807025"><ele>317.28</ele><time>2025-12-19T17:41:59.000Z</time></trkpt>
        <trkpt lat="29.0039278" lon="104.7806926"><ele>314.92</ele><time>2025-12-19T17:42:09.000Z</time></trkpt>
        <trkpt lat="29.0038297" lon="104.780659"><ele>312.12</ele><time>2025-12-19T17:42:21.000Z</time></trkpt>
        <trkpt lat="29.0037403" lon="104.7806206"><ele>310.35</ele><time>2025-12-19T17:42:29.000Z</time></trkpt>
        <trkpt lat="29.003634" lon="104.7805928"><ele>308.61</ele><time>2025-12-19T17:42:39.000Z</time></trkpt>
        <trkpt lat="29.0036049" lon="104.7805673"><ele>307.01</ele><time>2025-12-19T17:42:59.000Z</time></trkpt>
        <trkpt lat="29.0035396" lon="104.7805801"><ele>306.53</ele><time>2025-12-19T17:43:23.000Z</time></trkpt>
        <trkpt lat="29.0034696" lon="104.7805391"><ele>305.62</ele><time>2025-12-19T17:43:53.000Z</time></trkpt>
        <trkpt lat="29.0034443" lon="104.7804425"><ele>304.45</ele><time>2025-12-19T17:44:03.000Z</time></trkpt>
        <trkpt lat="29.0033991" lon="104.780331"><ele>302.15</ele><time>2025-12-19T17:44:15.000Z</time></trkpt>
        <trkpt lat="29.0033656" lon="104.7802232"><ele>297.44</ele><time>2025-12-19T17:44:27.000Z</time></trkpt>
        <trkpt lat="29.0033764" lon="104.7801121"><ele>292.91</ele><time>2025-12-19T17:44:45.000Z</time></trkpt>
        <trkpt lat="29.0033838" lon="104.7799962"><ele>291.4</ele><time>2025-12-19T17:44:55.000Z</time></trkpt>
        <trkpt lat="29.0033846" lon="104.7798806"><ele>292.6</ele><time>2025-12-19T17:45:05.000Z</time></trkpt>
        <trkpt lat="29.003338" lon="104.7797922"><ele>293.98</ele><time>2025-12-19T17:45:27.000Z</time></trkpt>
        <trkpt lat="29.0032649" lon="104.7797166"><ele>295.67</ele><time>2025-12-19T17:45:35.000Z</time></trkpt>
        <trkpt lat="29.0031958" lon="104.7796419"><ele>295.72</ele><time>2025-12-19T17:45:43.000Z</time></trkpt>
        <trkpt lat="29.0031146" lon="104.779585"><ele>296.06</ele><time>2025-12-19T17:45:53.000Z</time></trkpt>
        <trkpt lat="29.003024" lon="104.779555"><ele>295.82</ele><time>2025-12-19T17:46:01.000Z</time></trkpt>
        <trkpt lat="29.00293" lon="104.7795121"><ele>294.73</ele><time>2025-12-19T17:46:13.000Z</time></trkpt>
        <trkpt lat="29.0028548" lon="104.7794374"><ele>293.39</ele><time>2025-12-19T17:46:23.000Z</time></trkpt>
        <trkpt lat="29.0027772" lon="104.7793442"><ele>292.53</ele><time>2025-12-19T17:46:33.000Z</time></trkpt>
        <trkpt lat="29.0026932" lon="104.7792934"><ele>292.3</ele><time>2025-12-19T17:46:47.000Z</time></trkpt>
        <trkpt lat="29.0025991" lon="104.7792599"><ele>293.76</ele><time>2025-12-19T17:46:55.000Z</time></trkpt>
        <trkpt lat="29.0025117" lon="104.7792226"><ele>294.38</ele><time>2025-12-19T17:47:05.000Z</time></trkpt>
        <trkpt lat="29.0024148" lon="104.7792122"><ele>294.65</ele><time>2025-12-19T17:47:13.000Z</time></trkpt>
        <trkpt lat="29.0023245" lon="104.7791848"><ele>294.71</ele><time>2025-12-19T17:47:19.000Z</time></trkpt>
        <trkpt lat="29.0022346" lon="104.7791442"><ele>294.54</ele><time>2025-12-19T17:47:27.000Z</time></trkpt>
        <trkpt lat="29.002141" lon="104.7791301"><ele>294.26</ele><time>2025-12-19T17:47:33.000Z</time></trkpt>
        <trkpt lat="29.0020397" lon="104.7790939"><ele>293.12</ele><time>2025-12-19T17:47:45.000Z</time></trkpt>
        <trkpt lat="29.0019484" lon="104.7790447"><ele>290.18</ele><time>2025-12-19T17:47:55.000Z</time></trkpt>
        <trkpt lat="29.0018949" lon="104.7789501"><ele>287.14</ele><time>2025-12-19T17:48:07.000Z</time></trkpt>
        <trkpt lat="29.0019064" lon="104.7788336"><ele>283.38</ele><time>2025-12-19T17:48:15.000Z</time></trkpt>
        <trkpt lat="29.001992" lon="104.7787524"><ele>280.63</ele><time>2025-12-19T17:48:23.000Z</time></trkpt>
        <trkpt lat="29.0020911" lon="104.7787594"><ele>278.81</ele><time>2025-12-19T17:48:33.000Z</time></trkpt>
        <trkpt lat="29.0022012" lon="104.7787694"><ele>279.58</ele><time>2025-12-19T17:48:47.000Z</time></trkpt>
        <trkpt lat="29.0023035" lon="104.778758"><ele>282.56</ele><time>2025-12-19T17:48:55.000Z</time></trkpt>
        <trkpt lat="29.0023875" lon="104.7787007"><ele>285.5</ele><time>2025-12-19T17:49:07.000Z</time></trkpt>
        <trkpt lat="29.0024764" lon="104.7786515"><ele>286.1</ele><time>2025-12-19T17:49:21.000Z</time></trkpt>
        <trkpt lat="29.0025662" lon="104.7786338"><ele>286.66</ele><time>2025-12-19T17:49:27.000Z</time></trkpt>
        <trkpt lat="29.0026576" lon="104.7786384"><ele>287.06</ele><time>2025-12-19T17:49:37.000Z</time></trkpt>
        <trkpt lat="29.0027482" lon="104.778556"><ele>288.28</ele><time>2025-12-19T17:49:57.000Z</time></trkpt>
        <trkpt lat="29.0027557" lon="104.7785538"><ele>287.09</ele><time>2025-12-19T17:50:01.000Z</time></trkpt>
        <trkpt lat="29.0028093" lon="104.778596"><ele>286.53</ele><time>2025-12-19T17:50:17.000Z</time></trkpt>
        <trkpt lat="29.0028918" lon="104.778548"><ele>289.14</ele><time>2025-12-19T17:50:23.000Z</time></trkpt>
        <trkpt lat="29.0029483" lon="104.7786061"><ele>290.97</ele><time>2025-12-19T17:50:37.000Z</time></trkpt>
        <trkpt lat="29.0030038" lon="104.7786922"><ele>291.85</ele><time>2025-12-19T17:50:45.000Z</time></trkpt>
        <trkpt lat="29.0030669" lon="104.778783"><ele>292.3</ele><time>2025-12-19T17:50:55.000Z</time></trkpt>
        <trkpt lat="29.0031557" lon="104.7788317"><ele>292.94</ele><time>2025-12-19T17:51:09.000Z</time></trkpt>
        <trkpt lat="29.0032487" lon="104.778874"><ele>294.99</ele><time>2025-12-19T17:51:19.000Z</time></trkpt>
        <trkpt lat="29.0033354" lon="104.7789176"><ele>295.25</ele><time>2025-12-19T17:51:29.000Z</time></trkpt>
        <trkpt lat="29.0034288" lon="104.7789688"><ele>295.1</ele><time>2025-12-19T17:51:39.000Z</time></trkpt>
        <trkpt lat="29.0035257" lon="104.7789832"><ele>295.44</ele><time>2025-12-19T17:51:51.000Z</time></trkpt>
        <trkpt lat="29.0036108" lon="104.7789352"><ele>295.3</ele><time>2025-12-19T17:52:03.000Z</time></trkpt>
        <trkpt lat="29.0036925" lon="104.7788574"><ele>295.64</ele><time>2025-12-19T17:52:17.000Z</time></trkpt>
        <trkpt lat="29.0037607" lon="104.7787682"><ele>296.7</ele><time>2025-12-19T17:52:27.000Z</time></trkpt>
        <trkpt lat="29.0038145" lon="104.7786738"><ele>298.72</ele><time>2025-12-19T17:52:37.000Z</time></trkpt>
        <trkpt lat="29.0038502" lon="104.7785565"><ele>300.56</ele><time>2025-12-19T17:52:49.000Z</time></trkpt>
        <trkpt lat="29.003898" lon="104.7784438"><ele>301.87</ele><time>2025-12-19T17:52:57.000Z</time></trkpt>
        <trkpt lat="29.0039721" lon="104.77837"><ele>301.8</ele><time>2025-12-19T17:53:11.000Z</time></trkpt>
        <trkpt lat="29.0040772" lon="104.7783715"><ele>302.01</ele><time>2025-12-19T17:53:19.000Z</time></trkpt>
        <trkpt lat="29.0041385" lon="104.7783587"><ele>304.67</ele><time>2025-12-19T17:53:41.000Z</time></trkpt>
        <trkpt lat="29.004145" lon="104.7782683"><ele>307.27</ele><time>2025-12-19T17:55:17.000Z</time></trkpt>
        <trkpt lat="29.0041683" lon="104.7783083"><ele>305.47</ele><time>2025-12-19T17:55:27.000Z</time></trkpt>
        <trkpt lat="29.0042438" lon="104.7783455"><ele>304.62</ele><time>2025-12-19T17:56:15.000Z</time></trkpt>
        <trkpt lat="29.0043453" lon="104.778359"><ele>303.37</ele><time>2025-12-19T17:56:37.000Z</time></trkpt>
        <trkpt lat="29.004475" lon="104.7784217"><ele>302.48</ele><time>2025-12-19T17:59:39.000Z</time></trkpt>
        <trkpt lat="29.0045783" lon="104.778405"><ele>301.2</ele><time>2025-12-19T17:59:47.000Z</time></trkpt>
        <trkpt lat="29.0046873" lon="104.7784151"><ele>300.55</ele><time>2025-12-19T17:59:55.000Z</time></trkpt>
        <trkpt lat="29.0047883" lon="104.7784403"><ele>300.23</ele><time>2025-12-19T18:00:07.000Z</time></trkpt>
        <trkpt lat="29.004883" lon="104.7784477"><ele>299.14</ele><time>2025-12-19T18:00:23.000Z</time></trkpt>
        <trkpt lat="29.0049769" lon="104.778453"><ele>298.22</ele><time>2025-12-19T18:00:39.000Z</time></trkpt>
        <trkpt lat="29.005076" lon="104.7784613"><ele>296.36</ele><time>2025-12-19T18:00:59.000Z</time></trkpt>
        <trkpt lat="29.0051672" lon="104.7784397"><ele>293.63</ele><time>2025-12-19T18:01:09.000Z</time></trkpt>
        <trkpt lat="29.0052693" lon="104.7783808"><ele>291.21</ele><time>2025-12-19T18:01:21.000Z</time></trkpt>
        <trkpt lat="29.0053293" lon="104.7782899"><ele>288.92</ele><time>2025-12-19T18:01:29.000Z</time></trkpt>
        <trkpt lat="29.0053723" lon="104.7781839"><ele>286.76</ele><time>2025-12-19T18:01:41.000Z</time></trkpt>
        <trkpt lat="29.0053812" lon="104.7780218"><ele>284.58</ele><time>2025-12-19T18:01:49.000Z</time></trkpt>
        <trkpt lat="29.0053646" lon="104.7779182"><ele>283.17</ele><time>2025-12-19T18:02:13.000Z</time></trkpt>
        <trkpt lat="29.0053729" lon="104.7778179"><ele>283.49</ele><time>2025-12-19T18:02:33.000Z</time></trkpt>
        <trkpt lat="29.0053921" lon="104.7776991"><ele>283.62</ele><time>2025-12-19T18:02:41.000Z</time></trkpt>
        <trkpt lat="29.0054517" lon="104.7776143"><ele>283.57</ele><time>2025-12-19T18:03:07.000Z</time></trkpt>
        <trkpt lat="29.0055357" lon="104.7775463"><ele>281.56</ele><time>2025-12-19T18:03:17.000Z</time></trkpt>
        <trkpt lat="29.0055973" lon="104.7774604"><ele>279.99</ele><time>2025-12-19T18:03:27.000Z</time></trkpt>
        <trkpt lat="29.0056267" lon="104.7773725"><ele>279.48</ele><time>2025-12-19T18:03:41.000Z</time></trkpt>
        <trkpt lat="29.0056743" lon="104.7772865"><ele>279.62</ele><time>2025-12-19T18:04:05.000Z</time></trkpt>
        <trkpt lat="29.005759" lon="104.7772689"><ele>278.83</ele><time>2025-12-19T18:04:13.000Z</time></trkpt>
        <trkpt lat="29.0058509" lon="104.7772338"><ele>278.22</ele><time>2025-12-19T18:04:21.000Z</time></trkpt>
        <trkpt lat="29.0059458" lon="104.7771947"><ele>277.69</ele><time>2025-12-19T18:04:31.000Z</time></trkpt>
        <trkpt lat="29.0060404" lon="104.7771418"><ele>276.92</ele><time>2025-12-19T18:04:41.000Z</time></trkpt>
        <trkpt lat="29.0061376" lon="104.7770999"><ele>275.75</ele><time>2025-12-19T18:04:51.000Z</time></trkpt>
        <trkpt lat="29.0062039" lon="104.7770776"><ele>274.44</ele><time>2025-12-19T18:05:05.000Z</time></trkpt>
        <trkpt lat="29.0062285" lon="104.776977"><ele>274.47</ele><time>2025-12-19T18:05:27.000Z</time></trkpt>
        <trkpt lat="29.0062694" lon="104.7768828"><ele>274.65</ele><time>2025-12-19T18:05:39.000Z</time></trkpt>
        <trkpt lat="29.0062831" lon="104.7767734"><ele>275.75</ele><time>2025-12-19T18:05:49.000Z</time></trkpt>
        <trkpt lat="29.0062937" lon="104.7766613"><ele>275.51</ele><time>2025-12-19T18:06:01.000Z</time></trkpt>
        <trkpt lat="29.0063114" lon="104.7765473"><ele>276.63</ele><time>2025-12-19T18:06:11.000Z</time></trkpt>
        <trkpt lat="29.0063203" lon="104.7764386"><ele>277.22</ele><time>2025-12-19T18:06:21.000Z</time></trkpt>
        <trkpt lat="29.0063225" lon="104.7763088"><ele>277.51</ele><time>2025-12-19T18:06:31.000Z</time></trkpt>
        <trkpt lat="29.0063166" lon="104.7761864"><ele>278.5</ele><time>2025-12-19T18:06:43.000Z</time></trkpt>
        <trkpt lat="29.0062821" lon="104.7760853"><ele>279.57</ele><time>2025-12-19T18:07:11.000Z</time></trkpt>
        <trkpt lat="29.0063206" lon="104.7759948"><ele>279.11</ele><time>2025-12-19T18:07:25.000Z</time></trkpt>
        <trkpt lat="29.0063176" lon="104.7758871"><ele>277.82</ele><time>2025-12-19T18:07:51.000Z</time></trkpt>
        <trkpt lat="29.0062483" lon="104.7757983"><ele>276.82</ele><time>2025-12-19T18:09:11.000Z</time></trkpt>
        <trkpt lat="29.006265" lon="104.77569"><ele>279.05</ele><time>2025-12-19T18:09:39.000Z</time></trkpt>
        <trkpt lat="29.0062619" lon="104.7755859"><ele>282.12</ele><time>2025-12-19T18:10:09.000Z</time></trkpt>
        <trkpt lat="29.0062103" lon="104.7755044"><ele>284.01</ele><time>2025-12-19T18:10:21.000Z</time></trkpt>
        <trkpt lat="29.0061272" lon="104.7754488"><ele>285.85</ele><time>2025-12-19T18:10:37.000Z</time></trkpt>
        <trkpt lat="29.0060443" lon="104.7753906"><ele>287.77</ele><time>2025-12-19T18:10:59.000Z</time></trkpt>
        <trkpt lat="29.0059485" lon="104.775382"><ele>289.85</ele><time>2025-12-19T18:11:13.000Z</time></trkpt>
        <trkpt lat="29.0058535" lon="104.7753542"><ele>292.66</ele><time>2025-12-19T18:11:41.000Z</time></trkpt>
        <trkpt lat="29.0057854" lon="104.7752837"><ele>295.99</ele><time>2025-12-19T18:11:55.000Z</time></trkpt>
        <trkpt lat="29.0057407" lon="104.7751817"><ele>299.44</ele><time>2025-12-19T18:12:11.000Z</time></trkpt>
        <trkpt lat="29.0056595" lon="104.7751442"><ele>300.75</ele><time>2025-12-19T18:12:21.000Z</time></trkpt>
        <trkpt lat="29.0055796" lon="104.775093"><ele>301.72</ele><time>2025-12-19T18:12:33.000Z</time></trkpt>
        <trkpt lat="29.0054948" lon="104.7750333"><ele>302.06</ele><time>2025-12-19T18:12:51.000Z</time></trkpt>
        <trkpt lat="29.0054476" lon="104.7749428"><ele>302.07</ele><time>2025-12-19T18:13:15.000Z</time></trkpt>
        <trkpt lat="29.0054647" lon="104.77484"><ele>306.52</ele><time>2025-12-19T18:13:33.000Z</time></trkpt>
        <trkpt lat="29.0054997" lon="104.7747332"><ele>308.96</ele><time>2025-12-19T18:13:51.000Z</time></trkpt>
        <trkpt lat="29.0054956" lon="104.7746192"><ele>310.23</ele><time>2025-12-19T18:14:13.000Z</time></trkpt>
        <trkpt lat="29.0054474" lon="104.7745099"><ele>311.16</ele><time>2025-12-19T18:14:29.000Z</time></trkpt>
        <trkpt lat="29.0053748" lon="104.7744158"><ele>312.12</ele><time>2025-12-19T18:14:41.000Z</time></trkpt>
        <trkpt lat="29.0053497" lon="104.7743"><ele>313.53</ele><time>2025-12-19T18:14:55.000Z</time></trkpt>
        <trkpt lat="29.0053509" lon="104.7741843"><ele>315.15</ele><time>2025-12-19T18:15:11.000Z</time></trkpt>
        <trkpt lat="29.0053781" lon="104.7740732"><ele>316.38</ele><time>2025-12-19T18:15:21.000Z</time></trkpt>
        <trkpt lat="29.0054191" lon="104.7739717"><ele>317.12</ele><time>2025-12-19T18:15:33.000Z</time></trkpt>
        <trkpt lat="29.0054687" lon="104.7738738"><ele>318.32</ele><time>2025-12-19T18:15:43.000Z</time></trkpt>
        <trkpt lat="29.0054832" lon="104.7737603"><ele>319.34</ele><time>2025-12-19T18:16:03.000Z</time></trkpt>
        <trkpt lat="29.0055221" lon="104.7736381"><ele>317.6</ele><time>2025-12-19T18:16:17.000Z</time></trkpt>
        <trkpt lat="29.0055684" lon="104.7735397"><ele>315.84</ele><time>2025-12-19T18:16:37.000Z</time></trkpt>
        <trkpt lat="29.0055754" lon="104.7734369"><ele>316.68</ele><time>2025-12-19T18:16:47.000Z</time></trkpt>
        <trkpt lat="29.0055885" lon="104.7733305"><ele>316.9</ele><time>2025-12-19T18:16:57.000Z</time></trkpt>
        <trkpt lat="29.0055943" lon="104.7732224"><ele>317.68</ele><time>2025-12-19T18:17:07.000Z</time></trkpt>
        <trkpt lat="29.0055729" lon="104.7731189"><ele>318.55</ele><time>2025-12-19T18:17:17.000Z</time></trkpt>
        <trkpt lat="29.0056417" lon="104.7730667"><ele>319.6</ele><time>2025-12-19T18:19:09.000Z</time></trkpt>
        <trkpt lat="29.0057183" lon="104.7729983"><ele>321.71</ele><time>2025-12-19T18:19:41.000Z</time></trkpt>
        <trkpt lat="29.0058246" lon="104.7729836"><ele>319.98</ele><time>2025-12-19T18:19:55.000Z</time></trkpt>
        <trkpt lat="29.0058975" lon="104.7729192"><ele>319.22</ele><time>2025-12-19T18:20:47.000Z</time></trkpt>
        <trkpt lat="29.0059983" lon="104.772925"><ele>317.7</ele><time>2025-12-19T18:22:19.000Z</time></trkpt>
        <trkpt lat="29.0060667" lon="104.7730067"><ele>315.9</ele><time>2025-12-19T18:22:29.000Z</time></trkpt>
        <trkpt lat="29.0061181" lon="104.7731123"><ele>316.97</ele><time>2025-12-19T18:22:37.000Z</time></trkpt>
        <trkpt lat="29.0061626" lon="104.7732106"><ele>318.66</ele><time>2025-12-19T18:22:51.000Z</time></trkpt>
        <trkpt lat="29.0061949" lon="104.7733118"><ele>320.53</ele><time>2025-12-19T18:23:01.000Z</time></trkpt>
        <trkpt lat="29.0062495" lon="104.7733976"><ele>322.37</ele><time>2025-12-19T18:23:13.000Z</time></trkpt>
        <trkpt lat="29.0062932" lon="104.7734875"><ele>323.8</ele><time>2025-12-19T18:23:21.000Z</time></trkpt>
        <trkpt lat="29.0062923" lon="104.7736048"><ele>325.18</ele><time>2025-12-19T18:23:31.000Z</time></trkpt>
        <trkpt lat="29.0062627" lon="104.7737121"><ele>326.13</ele><time>2025-12-19T18:23:47.000Z</time></trkpt>
        <trkpt lat="29.0062717" lon="104.7738156"><ele>325.3</ele><time>2025-12-19T18:23:53.000Z</time></trkpt>
        <trkpt lat="29.0062813" lon="104.7739375"><ele>324.31</ele><time>2025-12-19T18:24:05.000Z</time></trkpt>
        <trkpt lat="29.0063095" lon="104.7740551"><ele>322.8</ele><time>2025-12-19T18:24:13.000Z</time></trkpt>
        <trkpt lat="29.0063015" lon="104.7741612"><ele>321.64</ele><time>2025-12-19T18:24:21.000Z</time></trkpt>
        <trkpt lat="29.0063091" lon="104.7742567"><ele>321.24</ele><time>2025-12-19T18:24:41.000Z</time></trkpt>
        <trkpt lat="29.0063063" lon="104.7743563"><ele>319.54</ele><time>2025-12-19T18:24:59.000Z</time></trkpt>
        <trkpt lat="29.0062921" lon="104.7744595"><ele>317.42</ele><time>2025-12-19T18:25:19.000Z</time></trkpt>
        <trkpt lat="29.0063533" lon="104.7745617"><ele>315.82</ele><time>2025-12-19T18:26:51.000Z</time></trkpt>
        <trkpt lat="29.00636" lon="104.774675"><ele>314.26</ele><time>2025-12-19T18:27:01.000Z</time></trkpt>
        <trkpt lat="29.0064118" lon="104.7747629"><ele>313.25</ele><time>2025-12-19T18:27:15.000Z</time></trkpt>
        <trkpt lat="29.0064883" lon="104.7748323"><ele>311.08</ele><time>2025-12-19T18:27:27.000Z</time></trkpt>
        <trkpt lat="29.0065928" lon="104.7748266"><ele>308.29</ele><time>2025-12-19T18:27:41.000Z</time></trkpt>
        <trkpt lat="29.0066949" lon="104.7747912"><ele>306.14</ele><time>2025-12-19T18:27:53.000Z</time></trkpt>
        <trkpt lat="29.0067946" lon="104.7747581"><ele>305.18</ele><time>2025-12-19T18:28:01.000Z</time></trkpt>
        <trkpt lat="29.0068733" lon="104.7746814"><ele>303.98</ele><time>2025-12-19T18:28:13.000Z</time></trkpt>
        <trkpt lat="29.006965" lon="104.7746711"><ele>301.8</ele><time>2025-12-19T18:28:27.000Z</time></trkpt>
        <trkpt lat="29.0070648" lon="104.7746672"><ele>300.55</ele><time>2025-12-19T18:28:41.000Z</time></trkpt>
        <trkpt lat="29.0071597" lon="104.774639"><ele>299.5</ele><time>2025-12-19T18:28:49.000Z</time></trkpt>
        <trkpt lat="29.0072485" lon="104.7745955"><ele>298.59</ele><time>2025-12-19T18:28:59.000Z</time></trkpt>
        <trkpt lat="29.0073388" lon="104.7745959"><ele>298.17</ele><time>2025-12-19T18:29:19.000Z</time></trkpt>
        <trkpt lat="29.0074187" lon="104.774556"><ele>299.9</ele><time>2025-12-19T18:29:35.000Z</time></trkpt>
        <trkpt lat="29.0075074" lon="104.774507"><ele>298.09</ele><time>2025-12-19T18:30:11.000Z</time></trkpt>
        <trkpt lat="29.0076012" lon="104.7744899"><ele>296.98</ele><time>2025-12-19T18:30:19.000Z</time></trkpt>
        <trkpt lat="29.0077041" lon="104.7744993"><ele>295.18</ele><time>2025-12-19T18:30:27.000Z</time></trkpt>
        <trkpt lat="29.0077976" lon="104.7744747"><ele>292.95</ele><time>2025-12-19T18:30:37.000Z</time></trkpt>
        <trkpt lat="29.0078906" lon="104.7744106"><ele>290.35</ele><time>2025-12-19T18:30:47.000Z</time></trkpt>
        <trkpt lat="29.0079862" lon="104.7743478"><ele>288.48</ele><time>2025-12-19T18:30:57.000Z</time></trkpt>
        <trkpt lat="29.008089" lon="104.7743307"><ele>287.33</ele><time>2025-12-19T18:31:15.000Z</time></trkpt>
        <trkpt lat="29.0081731" lon="104.7742715"><ele>286.37</ele><time>2025-12-19T18:31:23.000Z</time></trkpt>
        <trkpt lat="29.0082487" lon="104.7742088"><ele>285.82</ele><time>2025-12-19T18:31:33.000Z</time></trkpt>
        <trkpt lat="29.0083345" lon="104.7741788"><ele>285.55</ele><time>2025-12-19T18:31:43.000Z</time></trkpt>
        <trkpt lat="29.0084311" lon="104.7741653"><ele>285.83</ele><time>2025-12-19T18:32:01.000Z</time></trkpt>
        <trkpt lat="29.0085029" lon="104.774109"><ele>287.37</ele><time>2025-12-19T18:32:07.000Z</time></trkpt>
        <trkpt lat="29.0085811" lon="104.774028"><ele>288.63</ele><time>2025-12-19T18:32:17.000Z</time></trkpt>
        <trkpt lat="29.008609" lon="104.7739907"><ele>289.3</ele><time>2025-12-19T18:32:29.000Z</time></trkpt>
        <trkpt lat="29.0086774" lon="104.7740067"><ele>289.39</ele><time>2025-12-19T18:32:45.000Z</time></trkpt>
        <trkpt lat="29.0087448" lon="104.7740884"><ele>289.65</ele><time>2025-12-19T18:33:03.000Z</time></trkpt>
        <trkpt lat="29.0088273" lon="104.7741468"><ele>289.03</ele><time>2025-12-19T18:33:17.000Z</time></trkpt>
        <trkpt lat="29.0089301" lon="104.7741597"><ele>287.47</ele><time>2025-12-19T18:33:29.000Z</time></trkpt>
        <trkpt lat="29.0090293" lon="104.774157"><ele>286.71</ele><time>2025-12-19T18:33:39.000Z</time></trkpt>
        <trkpt lat="29.0091017" lon="104.7742153"><ele>286.79</ele><time>2025-12-19T18:33:57.000Z</time></trkpt>
        <trkpt lat="29.0091875" lon="104.7742525"><ele>287.05</ele><time>2025-12-19T18:34:07.000Z</time></trkpt>
        <trkpt lat="29.0092554" lon="104.7743197"><ele>286.64</ele><time>2025-12-19T18:34:15.000Z</time></trkpt>
        <trkpt lat="29.0092879" lon="104.7744277"><ele>286.11</ele><time>2025-12-19T18:34:27.000Z</time></trkpt>
        <trkpt lat="29.0093209" lon="104.7745351"><ele>285.29</ele><time>2025-12-19T18:34:41.000Z</time></trkpt>
        <trkpt lat="29.0093603" lon="104.7746454"><ele>284.52</ele><time>2025-12-19T18:34:53.000Z</time></trkpt>
        <trkpt lat="29.0094044" lon="104.774759"><ele>283.91</ele><time>2025-12-19T18:35:03.000Z</time></trkpt>
        <trkpt lat="29.009467" lon="104.7748514"><ele>283.69</ele><time>2025-12-19T18:35:15.000Z</time></trkpt>
        <trkpt lat="29.0095098" lon="104.7749453"><ele>283.44</ele><time>2025-12-19T18:35:45.000Z</time></trkpt>
        <trkpt lat="29.0095356" lon="104.7748916"><ele>285.31</ele><time>2025-12-19T18:36:19.000Z</time></trkpt>
        <trkpt lat="29.00953" lon="104.7749533"><ele>282.68</ele><time>2025-12-19T18:37:27.000Z</time></trkpt>
        <trkpt lat="29.009595" lon="104.7750283"><ele>282.39</ele><time>2025-12-19T18:37:59.000Z</time></trkpt>
        <trkpt lat="29.0096233" lon="104.7751344"><ele>281.79</ele><time>2025-12-19T18:38:09.000Z</time></trkpt>
        <trkpt lat="29.00964" lon="104.7752433"><ele>281.24</ele><time>2025-12-19T18:38:19.000Z</time></trkpt>
        <trkpt lat="29.0095764" lon="104.7753032"><ele>280.49</ele><time>2025-12-19T18:39:05.000Z</time></trkpt>
        <trkpt lat="29.0096233" lon="104.7752367"><ele>273.57</ele><time>2025-12-19T18:40:41.000Z</time></trkpt>
        <trkpt lat="29.009645" lon="104.7753367"><ele>270.01</ele><time>2025-12-19T18:41:37.000Z</time></trkpt>
        <trkpt lat="29.0097083" lon="104.77543"><ele>268.24</ele><time>2025-12-19T18:45:51.000Z</time></trkpt>
        <trkpt lat="29.0097733" lon="104.7755133"><ele>266.63</ele><time>2025-12-19T18:46:07.000Z</time></trkpt>
        <trkpt lat="29.0098172" lon="104.7756136"><ele>267.18</ele><time>2025-12-19T18:46:19.000Z</time></trkpt>
        <trkpt lat="29.0098444" lon="104.7757168"><ele>269.25</ele><time>2025-12-19T18:46:35.000Z</time></trkpt>
        <trkpt lat="29.0098914" lon="104.7758086"><ele>271.55</ele><time>2025-12-19T18:46:47.000Z</time></trkpt>
        <trkpt lat="29.0099689" lon="104.775802"><ele>272.13</ele><time>2025-12-19T18:47:05.000Z</time></trkpt>
        <trkpt lat="29.0100459" lon="104.7757297"><ele>273.02</ele><time>2025-12-19T18:47:17.000Z</time></trkpt>
        <trkpt lat="29.0100708" lon="104.7756113"><ele>274.56</ele><time>2025-12-19T18:47:25.000Z</time></trkpt>
        <trkpt lat="29.0100983" lon="104.7754889"><ele>274.92</ele><time>2025-12-19T18:47:37.000Z</time></trkpt>
        <trkpt lat="29.0101316" lon="104.7753786"><ele>274.01</ele><time>2025-12-19T18:47:47.000Z</time></trkpt>
        <trkpt lat="29.0101807" lon="104.7752786"><ele>273.83</ele><time>2025-12-19T18:47:55.000Z</time></trkpt>
        <trkpt lat="29.0102432" lon="104.7752298"><ele>273.82</ele><time>2025-12-19T18:48:11.000Z</time></trkpt>
        <trkpt lat="29.010305" lon="104.7751398"><ele>272.91</ele><time>2025-12-19T18:48:37.000Z</time></trkpt>
        <trkpt lat="29.0103541" lon="104.7750318"><ele>270.24</ele><time>2025-12-19T18:48:45.000Z</time></trkpt>
        <trkpt lat="29.010373" lon="104.7749155"><ele>269.27</ele><time>2025-12-19T18:48:55.000Z</time></trkpt>
        <trkpt lat="29.0103837" lon="104.7747952"><ele>270.32</ele><time>2025-12-19T18:49:05.000Z</time></trkpt>
        <trkpt lat="29.0104058" lon="104.7746896"><ele>272.16</ele><time>2025-12-19T18:49:13.000Z</time></trkpt>
        <trkpt lat="29.0104248" lon="104.7745864"><ele>273.73</ele><time>2025-12-19T18:49:29.000Z</time></trkpt>
        <trkpt lat="29.0104666" lon="104.7744963"><ele>274.7</ele><time>2025-12-19T18:49:41.000Z</time></trkpt>
        <trkpt lat="29.0105269" lon="104.7744144"><ele>276.04</ele><time>2025-12-19T18:49:51.000Z</time></trkpt>
        <trkpt lat="29.0106205" lon="104.7743723"><ele>277.01</ele><time>2025-12-19T18:50:03.000Z</time></trkpt>
        <trkpt lat="29.0107221" lon="104.7743562"><ele>279.16</ele><time>2025-12-19T18:50:13.000Z</time></trkpt>
        <trkpt lat="29.0108164" lon="104.7743344"><ele>281.71</ele><time>2025-12-19T18:50:25.000Z</time></trkpt>
        <trkpt lat="29.0108311" lon="104.7742502"><ele>282.91</ele><time>2025-12-19T18:50:41.000Z</time></trkpt>
        <trkpt lat="29.0107999" lon="104.7741494"><ele>283.16</ele><time>2025-12-19T18:50:51.000Z</time></trkpt>
        <trkpt lat="29.010861" lon="104.7741005"><ele>283.4</ele><time>2025-12-19T18:51:01.000Z</time></trkpt>
        <trkpt lat="29.0109531" lon="104.7740854"><ele>283.05</ele><time>2025-12-19T18:51:15.000Z</time></trkpt>
        <trkpt lat="29.0110565" lon="104.7741187"><ele>282.34</ele><time>2025-12-19T18:51:29.000Z</time></trkpt>
        <trkpt lat="29.0111483" lon="104.7741895"><ele>281.72</ele><time>2025-12-19T18:51:39.000Z</time></trkpt>
        <trkpt lat="29.0112387" lon="104.7742662"><ele>281.5</ele><time>2025-12-19T18:51:55.000Z</time></trkpt>
        <trkpt lat="29.0113267" lon="104.7742682"><ele>279.52</ele><time>2025-12-19T18:52:17.000Z</time></trkpt>
        <trkpt lat="29.0114237" lon="104.7742178"><ele>277.7</ele><time>2025-12-19T18:52:39.000Z</time></trkpt>
        <trkpt lat="29.011519" lon="104.7741635"><ele>276.28</ele><time>2025-12-19T18:52:51.000Z</time></trkpt>
        <trkpt lat="29.0116169" lon="104.7741133"><ele>275.95</ele><time>2025-12-19T18:52:59.000Z</time></trkpt>
        <trkpt lat="29.0116518" lon="104.7740872"><ele>276.36</ele><time>2025-12-19T18:53:01.000Z</time></trkpt>
        <trkpt lat="29.0117298" lon="104.7740372"><ele>276.55</ele><time>2025-12-19T18:53:11.000Z</time></trkpt>
        <trkpt lat="29.011808" lon="104.7739702"><ele>277.43</ele><time>2025-12-19T18:53:21.000Z</time></trkpt>
        <trkpt lat="29.011877" lon="104.7738867"><ele>278.71</ele><time>2025-12-19T18:53:31.000Z</time></trkpt>
        <trkpt lat="29.011941" lon="104.7737998"><ele>279.95</ele><time>2025-12-19T18:53:41.000Z</time></trkpt>
        <trkpt lat="29.0120211" lon="104.7737358"><ele>280.7</ele><time>2025-12-19T18:53:51.000Z</time></trkpt>
        <trkpt lat="29.012095" lon="104.773655"><ele>281.39</ele><time>2025-12-19T18:54:03.000Z</time></trkpt>
        <trkpt lat="29.0121822" lon="104.773615"><ele>281.27</ele><time>2025-12-19T18:54:13.000Z</time></trkpt>
        <trkpt lat="29.0122869" lon="104.7736041"><ele>280.25</ele><time>2025-12-19T18:54:25.000Z</time></trkpt>
        <trkpt lat="29.0123796" lon="104.7735707"><ele>279.28</ele><time>2025-12-19T18:54:37.000Z</time></trkpt>
        <trkpt lat="29.0124704" lon="104.773554"><ele>277.78</ele><time>2025-12-19T18:55:33.000Z</time></trkpt>
        <trkpt lat="29.01256" lon="104.7736333"><ele>274.26</ele><time>2025-12-19T18:58:57.000Z</time></trkpt>
        <trkpt lat="29.012645" lon="104.7737"><ele>269.59</ele><time>2025-12-19T18:59:19.000Z</time></trkpt>
        <trkpt lat="29.01273" lon="104.7737582"><ele>266.71</ele><time>2025-12-19T18:59:31.000Z</time></trkpt>
        <trkpt lat="29.012788" lon="104.7737673"><ele>264.77</ele><time>2025-12-19T18:59:53.000Z</time></trkpt>
        <trkpt lat="29.012835" lon="104.773835"><ele>263.15</ele><time>2025-12-19T19:00:03.000Z</time></trkpt>
        <trkpt lat="29.0128601" lon="104.7739341"><ele>262.48</ele><time>2025-12-19T19:00:09.000Z</time></trkpt>
        <trkpt lat="29.0128622" lon="104.7740458"><ele>262.83</ele><time>2025-12-19T19:00:29.000Z</time></trkpt>
        <trkpt lat="29.0128478" lon="104.7741581"><ele>264.76</ele><time>2025-12-19T19:00:37.000Z</time></trkpt>
        <trkpt lat="29.012846" lon="104.7742661"><ele>266.88</ele><time>2025-12-19T19:00:59.000Z</time></trkpt>
        <trkpt lat="29.0128822" lon="104.7743639"><ele>269.21</ele><time>2025-12-19T19:01:05.000Z</time></trkpt>
        <trkpt lat="29.0129452" lon="104.7744413"><ele>270.5</ele><time>2025-12-19T19:01:09.000Z</time></trkpt>
        <trkpt lat="29.0129736" lon="104.7745441"><ele>271.45</ele><time>2025-12-19T19:01:23.000Z</time></trkpt>
        <trkpt lat="29.0129994" lon="104.7746626"><ele>271.64</ele><time>2025-12-19T19:01:35.000Z</time></trkpt>
        <trkpt lat="29.0130412" lon="104.7747736"><ele>271.19</ele><time>2025-12-19T19:01:55.000Z</time></trkpt>
        <trkpt lat="29.0131318" lon="104.7748568"><ele>268.14</ele><time>2025-12-19T19:02:11.000Z</time></trkpt>
        <trkpt lat="29.0132221" lon="104.7749196"><ele>265.24</ele><time>2025-12-19T19:02:19.000Z</time></trkpt>
        <trkpt lat="29.0133243" lon="104.774975"><ele>264.15</ele><time>2025-12-19T19:02:27.000Z</time></trkpt>
        <trkpt lat="29.0133341" lon="104.7750648"><ele>262.79</ele><time>2025-12-19T19:02:55.000Z</time></trkpt>
        <trkpt lat="29.0133162" lon="104.7751759"><ele>260.6</ele><time>2025-12-19T19:03:05.000Z</time></trkpt>
        <trkpt lat="29.0132586" lon="104.7752474"><ele>259.4</ele><time>2025-12-19T19:03:23.000Z</time></trkpt>
        <trkpt lat="29.0132003" lon="104.7753502"><ele>259.1</ele><time>2025-12-19T19:04:21.000Z</time></trkpt>
        <trkpt lat="29.0131547" lon="104.7754607"><ele>260.47</ele><time>2025-12-19T19:04:31.000Z</time></trkpt>
        <trkpt lat="29.0130972" lon="104.7755729"><ele>261.13</ele><time>2025-12-19T19:04:41.000Z</time></trkpt>
        <trkpt lat="29.0130597" lon="104.7756785"><ele>260.69</ele><time>2025-12-19T19:04:49.000Z</time></trkpt>
        <trkpt lat="29.0130141" lon="104.7757911"><ele>260.74</ele><time>2025-12-19T19:04:57.000Z</time></trkpt>
        <trkpt lat="29.0129799" lon="104.775895"><ele>261.19</ele><time>2025-12-19T19:05:05.000Z</time></trkpt>
        <trkpt lat="29.013019" lon="104.7759841"><ele>260.94</ele><time>2025-12-19T19:05:17.000Z</time></trkpt>
        <trkpt lat="29.0130804" lon="104.7760819"><ele>259.93</ele><time>2025-12-19T19:05:29.000Z</time></trkpt>
        <trkpt lat="29.0131658" lon="104.7761737"><ele>258.84</ele><time>2025-12-19T19:05:39.000Z</time></trkpt>
        <trkpt lat="29.0131926" lon="104.7762785"><ele>258.35</ele><time>2025-12-19T19:05:47.000Z</time></trkpt>
        <trkpt lat="29.0131972" lon="104.7763971"><ele>258.37</ele><time>2025-12-19T19:05:57.000Z</time></trkpt>
        <trkpt lat="29.0132141" lon="104.7765052"><ele>258.21</ele><time>2025-12-19T19:06:05.000Z</time></trkpt>
        <trkpt lat="29.013235" lon="104.7766071"><ele>257.99</ele><time>2025-12-19T19:06:13.000Z</time></trkpt>
        <trkpt lat="29.013284" lon="104.7767018"><ele>258.17</ele><time>2025-12-19T19:06:25.000Z</time></trkpt>
        <trkpt lat="29.0133696" lon="104.7767742"><ele>259.77</ele><time>2025-12-19T19:06:35.000Z</time></trkpt>
        <trkpt lat="29.0134683" lon="104.7768078"><ele>262.02</ele><time>2025-12-19T19:06:47.000Z</time></trkpt>
        <trkpt lat="29.0135514" lon="104.77687"><ele>264.72</ele><time>2025-12-19T19:06:59.000Z</time></trkpt>
        <trkpt lat="29.0136328" lon="104.7769418"><ele>265.79</ele><time>2025-12-19T19:07:13.000Z</time></trkpt>
        <trkpt lat="29.0137146" lon="104.7770221"><ele>265.45</ele><time>2025-12-19T19:07:27.000Z</time></trkpt>
        <trkpt lat="29.0137952" lon="104.7771076"><ele>263.36</ele><time>2025-12-19T19:07:37.000Z</time></trkpt>
        <trkpt lat="29.0138565" lon="104.7772067"><ele>262.82</ele><time>2025-12-19T19:07:47.000Z</time></trkpt>
        <trkpt lat="29.0139283" lon="104.7772925"><ele>262.85</ele><time>2025-12-19T19:07:59.000Z</time></trkpt>
        <trkpt lat="29.01399" lon="104.7773849"><ele>262.79</ele><time>2025-12-19T19:08:13.000Z</time></trkpt>
        <trkpt lat="29.014058" lon="104.7774599"><ele>263.57</ele><time>2025-12-19T19:08:25.000Z</time></trkpt>
        <trkpt lat="29.0141439" lon="104.7774906"><ele>264.23</ele><time>2025-12-19T19:08:37.000Z</time></trkpt>
        <trkpt lat="29.01423" lon="104.7774483"><ele>265.63</ele><time>2025-12-19T19:08:45.000Z</time></trkpt>
        <trkpt lat="29.0143277" lon="104.7774273"><ele>266.22</ele><time>2025-12-19T19:09:03.000Z</time></trkpt>
        <trkpt lat="29.0144166" lon="104.7774484"><ele>264.84</ele><time>2025-12-19T19:09:11.000Z</time></trkpt>
        <trkpt lat="29.0144776" lon="104.7775267"><ele>265.04</ele><time>2025-12-19T19:09:21.000Z</time></trkpt>
        <trkpt lat="29.0145446" lon="104.7776082"><ele>265.97</ele><time>2025-12-19T19:09:43.000Z</time></trkpt>
        <trkpt lat="29.014599" lon="104.7777021"><ele>270.54</ele><time>2025-12-19T19:10:03.000Z</time></trkpt>
        <trkpt lat="29.0146506" lon="104.7777995"><ele>273.62</ele><time>2025-12-19T19:10:23.000Z</time></trkpt>
        <trkpt lat="29.0147309" lon="104.7778576"><ele>274.34</ele><time>2025-12-19T19:10:31.000Z</time></trkpt>
        <trkpt lat="29.0148199" lon="104.7778925"><ele>275.44</ele><time>2025-12-19T19:10:51.000Z</time></trkpt>
        <trkpt lat="29.0148932" lon="104.7779582"><ele>277.15</ele><time>2025-12-19T19:11:03.000Z</time></trkpt>
        <trkpt lat="29.0149347" lon="104.7780596"><ele>278.33</ele><time>2025-12-19T19:11:15.000Z</time></trkpt>
        <trkpt lat="29.0149898" lon="104.7781698"><ele>278.53</ele><time>2025-12-19T19:11:25.000Z</time></trkpt>
        <trkpt lat="29.0150481" lon="104.7782622"><ele>278.35</ele><time>2025-12-19T19:11:35.000Z</time></trkpt>
        <trkpt lat="29.0151315" lon="104.7783263"><ele>278.5</ele><time>2025-12-19T19:11:41.000Z</time></trkpt>
        <trkpt lat="29.0152417" lon="104.7783326"><ele>278.63</ele><time>2025-12-19T19:11:55.000Z</time></trkpt>
        <trkpt lat="29.0153426" lon="104.7782955"><ele>279.43</ele><time>2025-12-19T19:12:03.000Z</time></trkpt>
        <trkpt lat="29.015443" lon="104.778283"><ele>280.75</ele><time>2025-12-19T19:12:29.000Z</time></trkpt>
        <trkpt lat="29.0154737" lon="104.7783565"><ele>280.69</ele><time>2025-12-19T19:12:39.000Z</time></trkpt>
        <trkpt lat="29.0154736" lon="104.7784688"><ele>279.79</ele><time>2025-12-19T19:12:49.000Z</time></trkpt>
        <trkpt lat="29.0155284" lon="104.7785724"><ele>280.83</ele><time>2025-12-19T19:13:07.000Z</time></trkpt>
        <trkpt lat="29.0155694" lon="104.7786758"><ele>281.5</ele><time>2025-12-19T19:13:15.000Z</time></trkpt>
        <trkpt lat="29.015608" lon="104.77875"><ele>281.93</ele><time>2025-12-19T19:13:29.000Z</time></trkpt>
        <trkpt lat="29.0155833" lon="104.7786721"><ele>281.4</ele><time>2025-12-19T19:13:53.000Z</time></trkpt>
        <trkpt lat="29.015557" lon="104.7786038"><ele>281.23</ele><time>2025-12-19T19:13:55.000Z</time></trkpt>
        <trkpt lat="29.0155024" lon="104.7785077"><ele>280.79</ele><time>2025-12-19T19:14:05.000Z</time></trkpt>
        <trkpt lat="29.0154946" lon="104.7783994"><ele>279.16</ele><time>2025-12-19T19:14:15.000Z</time></trkpt>
        <trkpt lat="29.0155715" lon="104.778323"><ele>278.53</ele><time>2025-12-19T19:14:29.000Z</time></trkpt>
        <trkpt lat="29.0156344" lon="104.7783949"><ele>280.24</ele><time>2025-12-19T19:14:41.000Z</time></trkpt>
        <trkpt lat="29.0156894" lon="104.7785081"><ele>283.49</ele><time>2025-12-19T19:14:51.000Z</time></trkpt>
        <trkpt lat="29.0157671" lon="104.778583"><ele>287.15</ele><time>2025-12-19T19:15:03.000Z</time></trkpt>
        <trkpt lat="29.0158161" lon="104.7786773"><ele>290.05</ele><time>2025-12-19T19:15:15.000Z</time></trkpt>
        <trkpt lat="29.0158931" lon="104.7787409"><ele>293.09</ele><time>2025-12-19T19:15:27.000Z</time></trkpt>
        <trkpt lat="29.0159948" lon="104.778764"><ele>295.84</ele><time>2025-12-19T19:15:47.000Z</time></trkpt>
        <trkpt lat="29.0160957" lon="104.7787605"><ele>298.66</ele><time>2025-12-19T19:15:57.000Z</time></trkpt>
        <trkpt lat="29.0161805" lon="104.7788237"><ele>300.01</ele><time>2025-12-19T19:16:07.000Z</time></trkpt>
        <trkpt lat="29.0162609" lon="104.7789053"><ele>301.17</ele><time>2025-12-19T19:16:17.000Z</time></trkpt>
        <trkpt lat="29.0163439" lon="104.7789841"><ele>302</ele><time>2025-12-19T19:16:31.000Z</time></trkpt>
        <trkpt lat="29.0163944" lon="104.7790871"><ele>302.17</ele><time>2025-12-19T19:16:41.000Z</time></trkpt>
        <trkpt lat="29.0164807" lon="104.7791455"><ele>302.18</ele><time>2025-12-19T19:16:51.000Z</time></trkpt>
        <trkpt lat="29.0165731" lon="104.7791494"><ele>302.97</ele><time>2025-12-19T19:17:07.000Z</time></trkpt>
        <trkpt lat="29.0166292" lon="104.77924"><ele>304.1</ele><time>2025-12-19T19:17:23.000Z</time></trkpt>
        <trkpt lat="29.0166637" lon="104.7793423"><ele>304.7</ele><time>2025-12-19T19:17:37.000Z</time></trkpt>
        <trkpt lat="29.0166806" lon="104.7794561"><ele>305.6</ele><time>2025-12-19T19:17:49.000Z</time></trkpt>
        <trkpt lat="29.0167243" lon="104.7795545"><ele>307.32</ele><time>2025-12-19T19:18:01.000Z</time></trkpt>
        <trkpt lat="29.0167923" lon="104.779628"><ele>309.46</ele><time>2025-12-19T19:18:13.000Z</time></trkpt>
        <trkpt lat="29.0168639" lon="104.779701"><ele>311.93</ele><time>2025-12-19T19:18:27.000Z</time></trkpt>
        <trkpt lat="29.0169527" lon="104.7797239"><ele>313.9</ele><time>2025-12-19T19:18:39.000Z</time></trkpt>
        <trkpt lat="29.0170594" lon="104.7797229"><ele>313.47</ele><time>2025-12-19T19:18:53.000Z</time></trkpt>
        <trkpt lat="29.0171673" lon="104.7796938"><ele>313.4</ele><time>2025-12-19T19:19:05.000Z</time></trkpt>
        <trkpt lat="29.0172751" lon="104.7796361"><ele>313.53</ele><time>2025-12-19T19:19:17.000Z</time></trkpt>
        <trkpt lat="29.017372" lon="104.7796237"><ele>312.87</ele><time>2025-12-19T19:19:31.000Z</time></trkpt>
        <trkpt lat="29.0174492" lon="104.7795684"><ele>311.89</ele><time>2025-12-19T19:19:41.000Z</time></trkpt>
        <trkpt lat="29.0175371" lon="104.7795768"><ele>313.27</ele><time>2025-12-19T19:19:51.000Z</time></trkpt>
        <trkpt lat="29.0176202" lon="104.7796217"><ele>315.56</ele><time>2025-12-19T19:20:05.000Z</time></trkpt>
        <trkpt lat="29.0177028" lon="104.7796099"><ele>316.87</ele><time>2025-12-19T19:20:17.000Z</time></trkpt>
        <trkpt lat="29.0177755" lon="104.7795427"><ele>316.84</ele><time>2025-12-19T19:20:25.000Z</time></trkpt>
        <trkpt lat="29.0178248" lon="104.7794466"><ele>316.61</ele><time>2025-12-19T19:20:37.000Z</time></trkpt>
        <trkpt lat="29.0178261" lon="104.7793374"><ele>316.86</ele><time>2025-12-19T19:20:45.000Z</time></trkpt>
        <trkpt lat="29.017819" lon="104.7792171"><ele>316.23</ele><time>2025-12-19T19:20:55.000Z</time></trkpt>
        <trkpt lat="29.0178298" lon="104.779089"><ele>315.96</ele><time>2025-12-19T19:21:07.000Z</time></trkpt>
        <trkpt lat="29.0178433" lon="104.7789776"><ele>314.3</ele><time>2025-12-19T19:21:15.000Z</time></trkpt>
        <trkpt lat="29.0178516" lon="104.7788712"><ele>312.49</ele><time>2025-12-19T19:21:25.000Z</time></trkpt>
        <trkpt lat="29.0178431" lon="104.7787554"><ele>311.64</ele><time>2025-12-19T19:21:43.000Z</time></trkpt>
        <trkpt lat="29.0178525" lon="104.7786432"><ele>310.72</ele><time>2025-12-19T19:21:53.000Z</time></trkpt>
        <trkpt lat="29.0178232" lon="104.7785415"><ele>308.13</ele><time>2025-12-19T19:22:01.000Z</time></trkpt>
        <trkpt lat="29.017753" lon="104.7784661"><ele>305.49</ele><time>2025-12-19T19:22:19.000Z</time></trkpt>
        <trkpt lat="29.0176985" lon="104.7783797"><ele>304.98</ele><time>2025-12-19T19:22:43.000Z</time></trkpt>
        <trkpt lat="29.0177157" lon="104.77829"><ele>304.6</ele><time>2025-12-19T19:23:01.000Z</time></trkpt>
        <trkpt lat="29.01783" lon="104.7782433"><ele>304.73</ele><time>2025-12-19T19:24:47.000Z</time></trkpt>
        <trkpt lat="29.017735" lon="104.7782983"><ele>305.02</ele><time>2025-12-19T19:25:47.000Z</time></trkpt>
        <trkpt lat="29.0178417" lon="104.7782783"><ele>305.61</ele><time>2025-12-19T19:28:51.000Z</time></trkpt>
        <trkpt lat="29.01794" lon="104.778325"><ele>305.61</ele><time>2025-12-19T19:31:49.000Z</time></trkpt>
        <trkpt lat="29.0180217" lon="104.7783933"><ele>306.94</ele><time>2025-12-19T19:32:05.000Z</time></trkpt>
        <trkpt lat="29.018116" lon="104.7784038"><ele>308.3</ele><time>2025-12-19T19:32:13.000Z</time></trkpt>
        <trkpt lat="29.0181959" lon="104.7783552"><ele>308.9</ele><time>2025-12-19T19:32:25.000Z</time></trkpt>
        <trkpt lat="29.0182437" lon="104.7783506"><ele>308.94</ele><time>2025-12-19T19:32:41.000Z</time></trkpt>
        <trkpt lat="29.0183091" lon="104.7783004"><ele>308.75</ele><time>2025-12-19T19:33:01.000Z</time></trkpt>
        <trkpt lat="29.0183864" lon="104.7782462"><ele>309.93</ele><time>2025-12-19T19:33:13.000Z</time></trkpt>
        <trkpt lat="29.0184795" lon="104.778198"><ele>311.04</ele><time>2025-12-19T19:33:27.000Z</time></trkpt>
        <trkpt lat="29.0185641" lon="104.7781349"><ele>311.93</ele><time>2025-12-19T19:33:41.000Z</time></trkpt>
        <trkpt lat="29.0186605" lon="104.7780994"><ele>314.28</ele><time>2025-12-19T19:33:53.000Z</time></trkpt>
        <trkpt lat="29.0187475" lon="104.7780512"><ele>316.57</ele><time>2025-12-19T19:34:05.000Z</time></trkpt>
        <trkpt lat="29.0188464" lon="104.77802"><ele>316.71</ele><time>2025-12-19T19:34:21.000Z</time></trkpt>
        <trkpt lat="29.0189362" lon="104.777989"><ele>315.42</ele><time>2025-12-19T19:34:31.000Z</time></trkpt>
        <trkpt lat="29.0189681" lon="104.777991"><ele>315.19</ele><time>2025-12-19T19:34:39.000Z</time></trkpt>
        <trkpt lat="29.0189681" lon="104.777991"><ele>315.19</ele><time>2025-12-19T19:34:55.000Z</time></trkpt>
      </trkseg>
  </trk>
</gpx>